<?xml version="1.0" encoding="UTF-8" standalone="no" ?>
<gpx xmlns="http://www.topografix.com/GPX/1/1" xmlns:xsi="http://www.w3.org/2001/XMLSchema-instance" xsi:schemaLocation="http://www.topografix.com/GPX/1/1 http://www.topografix.com/GPX/1/1/gpx.xsd" version="1.1" creator="VisuGPX - https://www.visugpx.com">
  <metadata>
    <name>Le tour de la vallée du Chajoux</name>
    <desc><![CDATA[22 km  et 1000M de dénivelé]]></desc>
  </metadata>
  <trk>
    <name><![CDATA[Le tour de la vallée du Chajoux_1]]></name>
    <trkseg>
      <trkpt lat="48.00721" lon="6.88192">
        <ele>647</ele>
        <time>2015-05-31T07:36:05.86Z</time>
      </trkpt>
      <trkpt lat="48.00716" lon="6.88199">
        <ele>647</ele>
        <time>2015-05-31T07:37:05.915Z</time>
      </trkpt>
      <trkpt lat="48.00712" lon="6.88197">
        <ele>647</ele>
        <time>2015-05-31T07:38:06.87Z</time>
      </trkpt>
      <trkpt lat="48.00714" lon="6.88207">
        <ele>647</ele>
        <time>2015-05-31T07:39:07.826Z</time>
      </trkpt>
      <trkpt lat="48.00726" lon="6.88218">
        <ele>647</ele>
        <time>2015-05-31T07:40:05.813Z</time>
      </trkpt>
      <trkpt lat="48.00733" lon="6.88238">
        <ele>647</ele>
        <time>2015-05-31T07:40:15.828Z</time>
      </trkpt>
      <trkpt lat="48.00741" lon="6.88254">
        <ele>647</ele>
        <time>2015-05-31T07:40:34.86Z</time>
      </trkpt>
      <trkpt lat="48.00738" lon="6.88286">
        <ele>648</ele>
        <time>2015-05-31T07:40:51.845Z</time>
      </trkpt>
      <trkpt lat="48.00749" lon="6.883">
        <ele>648</ele>
        <time>2015-05-31T07:41:03.84Z</time>
      </trkpt>
      <trkpt lat="48.00745" lon="6.88322">
        <ele>649</ele>
        <time>2015-05-31T07:41:16.799Z</time>
      </trkpt>
      <trkpt lat="48.00724" lon="6.88405">
        <ele>650</ele>
        <time>2015-05-31T07:42:02.785Z</time>
      </trkpt>
      <trkpt lat="48.00709" lon="6.8843">
        <ele>652</ele>
        <time>2015-05-31T07:42:29.76Z</time>
      </trkpt>
      <trkpt lat="48.00704" lon="6.8845">
        <ele>652</ele>
        <time>2015-05-31T07:42:40.763Z</time>
      </trkpt>
      <trkpt lat="48.00691" lon="6.88484">
        <ele>652</ele>
        <time>2015-05-31T07:43:01.741Z</time>
      </trkpt>
      <trkpt lat="48.00697" lon="6.88505">
        <ele>656</ele>
        <time>2015-05-31T07:43:09.75Z</time>
      </trkpt>
      <trkpt lat="48.00729" lon="6.88571">
        <ele>661</ele>
        <time>2015-05-31T07:44:04.718Z</time>
      </trkpt>
      <trkpt lat="48.00718" lon="6.88584">
        <ele>667</ele>
        <time>2015-05-31T07:44:16.719Z</time>
      </trkpt>
      <trkpt lat="48.00702" lon="6.88605">
        <ele>667</ele>
        <time>2015-05-31T07:44:42.71Z</time>
      </trkpt>
      <trkpt lat="48.00705" lon="6.88626">
        <ele>669</ele>
        <time>2015-05-31T07:44:58.706Z</time>
      </trkpt>
      <trkpt lat="48.00714" lon="6.88689">
        <ele>682</ele>
        <time>2015-05-31T07:45:59.685Z</time>
      </trkpt>
      <trkpt lat="48.00723" lon="6.88705">
        <ele>684</ele>
        <time>2015-05-31T07:46:15.68Z</time>
      </trkpt>
      <trkpt lat="48.00722" lon="6.88727">
        <ele>686</ele>
        <time>2015-05-31T07:46:40.679Z</time>
      </trkpt>
      <trkpt lat="48.00715" lon="6.88745">
        <ele>687</ele>
        <time>2015-05-31T07:46:52.673Z</time>
      </trkpt>
      <trkpt lat="48.00705" lon="6.8877">
        <ele>696</ele>
        <time>2015-05-31T07:47:09.666Z</time>
      </trkpt>
      <trkpt lat="48.0069" lon="6.88789">
        <ele>696</ele>
        <time>2015-05-31T07:47:24.665Z</time>
      </trkpt>
      <trkpt lat="48.00686" lon="6.88808">
        <ele>697</ele>
        <time>2015-05-31T07:47:35.66Z</time>
      </trkpt>
      <trkpt lat="48.00685" lon="6.889">
        <ele>715</ele>
        <time>2015-05-31T07:48:36.646Z</time>
      </trkpt>
      <trkpt lat="48.00671" lon="6.88927">
        <ele>722</ele>
        <time>2015-05-31T07:49:04.646Z</time>
      </trkpt>
      <trkpt lat="48.00643" lon="6.88934">
        <ele>717</ele>
        <time>2015-05-31T07:49:53.641Z</time>
      </trkpt>
      <trkpt lat="48.00634" lon="6.88949">
        <ele>718</ele>
        <time>2015-05-31T07:50:04.638Z</time>
      </trkpt>
      <trkpt lat="48.00635" lon="6.88987">
        <ele>722</ele>
        <time>2015-05-31T07:50:53.631Z</time>
      </trkpt>
      <trkpt lat="48.00647" lon="6.89051">
        <ele>737</ele>
        <time>2015-05-31T07:51:49.619Z</time>
      </trkpt>
      <trkpt lat="48.00658" lon="6.8911">
        <ele>748</ele>
        <time>2015-05-31T07:52:39.62Z</time>
      </trkpt>
      <trkpt lat="48.00666" lon="6.89176">
        <ele>761</ele>
        <time>2015-05-31T07:53:31.624Z</time>
      </trkpt>
      <trkpt lat="48.00675" lon="6.89215">
        <ele>783</ele>
        <time>2015-05-31T07:53:59.626Z</time>
      </trkpt>
      <trkpt lat="48.00682" lon="6.89282">
        <ele>789</ele>
        <time>2015-05-31T07:54:54.64Z</time>
      </trkpt>
      <trkpt lat="48.00713" lon="6.89323">
        <ele>799</ele>
        <time>2015-05-31T07:55:55.613Z</time>
      </trkpt>
      <trkpt lat="48.00722" lon="6.89363">
        <ele>805</ele>
        <time>2015-05-31T07:56:56.59Z</time>
      </trkpt>
      <trkpt lat="48.0073" lon="6.8943">
        <ele>815</ele>
        <time>2015-05-31T07:57:42.588Z</time>
      </trkpt>
      <trkpt lat="48.00745" lon="6.89472">
        <ele>820</ele>
        <time>2015-05-31T07:58:43.581Z</time>
      </trkpt>
      <trkpt lat="48.00752" lon="6.89539">
        <ele>857</ele>
        <time>2015-05-31T07:59:38.58Z</time>
      </trkpt>
      <trkpt lat="48.00762" lon="6.89601">
        <ele>861</ele>
        <time>2015-05-31T08:00:39.57Z</time>
      </trkpt>
      <trkpt lat="48.0077" lon="6.89667">
        <ele>862</ele>
        <time>2015-05-31T08:01:34.574Z</time>
      </trkpt>
      <trkpt lat="48.0078" lon="6.89733">
        <ele>872</ele>
        <time>2015-05-31T08:02:28.551Z</time>
      </trkpt>
      <trkpt lat="48.00788" lon="6.89799">
        <ele>880</ele>
        <time>2015-05-31T08:03:18.571Z</time>
      </trkpt>
      <trkpt lat="48.00799" lon="6.8987">
        <ele>888</ele>
        <time>2015-05-31T08:04:07.561Z</time>
      </trkpt>
      <trkpt lat="48.00803" lon="6.89938">
        <ele>894</ele>
        <time>2015-05-31T08:04:53.569Z</time>
      </trkpt>
      <trkpt lat="48.00816" lon="6.89999">
        <ele>904</ele>
        <time>2015-05-31T08:05:31.524Z</time>
      </trkpt>
      <trkpt lat="48.00838" lon="6.90059">
        <ele>926</ele>
        <time>2015-05-31T08:06:19.574Z</time>
      </trkpt>
      <trkpt lat="48.00851" lon="6.90126">
        <ele>926</ele>
        <time>2015-05-31T08:07:07.63Z</time>
      </trkpt>
      <trkpt lat="48.0086" lon="6.90172">
        <ele>926</ele>
        <time>2015-05-31T08:07:41.55Z</time>
      </trkpt>
      <trkpt lat="48.00859" lon="6.90194">
        <ele>928</ele>
        <time>2015-05-31T08:07:50.53Z</time>
      </trkpt>
      <trkpt lat="48.00871" lon="6.90221">
        <ele>931</ele>
        <time>2015-05-31T08:08:16.473Z</time>
      </trkpt>
      <trkpt lat="48.00867" lon="6.90241">
        <ele>930</ele>
        <time>2015-05-31T08:08:27.48Z</time>
      </trkpt>
      <trkpt lat="48.00868" lon="6.90262">
        <ele>932</ele>
        <time>2015-05-31T08:08:43.57Z</time>
      </trkpt>
      <trkpt lat="48.00869" lon="6.90286">
        <ele>933</ele>
        <time>2015-05-31T08:08:57.529Z</time>
      </trkpt>
      <trkpt lat="48.0087" lon="6.90306">
        <ele>933</ele>
        <time>2015-05-31T08:09:10.52Z</time>
      </trkpt>
      <trkpt lat="48.00877" lon="6.90334">
        <ele>935</ele>
        <time>2015-05-31T08:09:29.501Z</time>
      </trkpt>
      <trkpt lat="48.00879" lon="6.90355">
        <ele>935</ele>
        <time>2015-05-31T08:09:41.508Z</time>
      </trkpt>
      <trkpt lat="48.00891" lon="6.90367">
        <ele>937</ele>
        <time>2015-05-31T08:09:55.52Z</time>
      </trkpt>
      <trkpt lat="48.00904" lon="6.90395">
        <ele>942</ele>
        <time>2015-05-31T08:10:43.504Z</time>
      </trkpt>
      <trkpt lat="48.00908" lon="6.90422">
        <ele>948</ele>
        <time>2015-05-31T08:11:14.539Z</time>
      </trkpt>
      <trkpt lat="48.00914" lon="6.90442">
        <ele>944</ele>
        <time>2015-05-31T08:11:29.521Z</time>
      </trkpt>
      <trkpt lat="48.00928" lon="6.90479">
        <ele>957</ele>
        <time>2015-05-31T08:11:54.546Z</time>
      </trkpt>
      <trkpt lat="48.00933" lon="6.90507">
        <ele>960</ele>
        <time>2015-05-31T08:12:12.599Z</time>
      </trkpt>
      <trkpt lat="48.00943" lon="6.90523">
        <ele>963</ele>
        <time>2015-05-31T08:12:25.589Z</time>
      </trkpt>
      <trkpt lat="48.00954" lon="6.90543">
        <ele>965</ele>
        <time>2015-05-31T08:12:42.57Z</time>
      </trkpt>
      <trkpt lat="48.00965" lon="6.9057">
        <ele>967</ele>
        <time>2015-05-31T08:13:01.535Z</time>
      </trkpt>
      <trkpt lat="48.00972" lon="6.90587">
        <ele>972</ele>
        <time>2015-05-31T08:14:02.533Z</time>
      </trkpt>
      <trkpt lat="48.00979" lon="6.90592">
        <ele>974</ele>
        <time>2015-05-31T08:15:02.561Z</time>
      </trkpt>
      <trkpt lat="48.00978" lon="6.90593">
        <ele>974</ele>
        <time>2015-05-31T08:16:03.556Z</time>
      </trkpt>
      <trkpt lat="48.00978" lon="6.90593">
        <ele>974</ele>
        <time>2015-05-31T08:17:04.504Z</time>
      </trkpt>
      <trkpt lat="48.00973" lon="6.90602">
        <ele>972</ele>
        <time>2015-05-31T08:18:04.524Z</time>
      </trkpt>
      <trkpt lat="48.00977" lon="6.90591">
        <ele>974</ele>
        <time>2015-05-31T08:19:04.538Z</time>
      </trkpt>
      <trkpt lat="48.00978" lon="6.9059">
        <ele>974</ele>
        <time>2015-05-31T08:20:05.496Z</time>
      </trkpt>
      <trkpt lat="48.00978" lon="6.9059">
        <ele>974</ele>
        <time>2015-05-31T08:21:06.498Z</time>
      </trkpt>
      <trkpt lat="48.00979" lon="6.90588">
        <ele>974</ele>
        <time>2015-05-31T08:22:07.481Z</time>
      </trkpt>
      <trkpt lat="48.00972" lon="6.90592">
        <ele>972</ele>
        <time>2015-05-31T08:23:07.488Z</time>
      </trkpt>
      <trkpt lat="48.00986" lon="6.90668">
        <ele>982</ele>
        <time>2015-05-31T08:23:59.539Z</time>
      </trkpt>
      <trkpt lat="48.00993" lon="6.90736">
        <ele>986</ele>
        <time>2015-05-31T08:24:52.465Z</time>
      </trkpt>
      <trkpt lat="48.01007" lon="6.90802">
        <ele>1007</ele>
        <time>2015-05-31T08:25:39.471Z</time>
      </trkpt>
      <trkpt lat="48.01021" lon="6.90881">
        <ele>1015</ele>
        <time>2015-05-31T08:26:33.463Z</time>
      </trkpt>
      <trkpt lat="48.01034" lon="6.90946">
        <ele>1022</ele>
        <time>2015-05-31T08:27:25.463Z</time>
      </trkpt>
      <trkpt lat="48.01042" lon="6.90985">
        <ele>1024</ele>
        <time>2015-05-31T08:27:50.46Z</time>
      </trkpt>
      <trkpt lat="48.01048" lon="6.91006">
        <ele>1028</ele>
        <time>2015-05-31T08:28:05.461Z</time>
      </trkpt>
      <trkpt lat="48.0105" lon="6.91038">
        <ele>1029</ele>
        <time>2015-05-31T08:29:06.464Z</time>
      </trkpt>
      <trkpt lat="48.01048" lon="6.91036">
        <ele>1029</ele>
        <time>2015-05-31T08:30:06.469Z</time>
      </trkpt>
      <trkpt lat="48.01051" lon="6.91036">
        <ele>1029</ele>
        <time>2015-05-31T08:31:07.465Z</time>
      </trkpt>
      <trkpt lat="48.01051" lon="6.91036">
        <ele>1029</ele>
        <time>2015-05-31T08:32:08.465Z</time>
      </trkpt>
      <trkpt lat="48.01051" lon="6.91038">
        <ele>1029</ele>
        <time>2015-05-31T08:33:09.461Z</time>
      </trkpt>
      <trkpt lat="48.01051" lon="6.91038">
        <ele>1029</ele>
        <time>2015-05-31T08:34:09.465Z</time>
      </trkpt>
      <trkpt lat="48.01051" lon="6.91038">
        <ele>1029</ele>
        <time>2015-05-31T08:35:10.461Z</time>
      </trkpt>
      <trkpt lat="48.01051" lon="6.91038">
        <ele>1029</ele>
        <time>2015-05-31T08:36:10.473Z</time>
      </trkpt>
      <trkpt lat="48.01051" lon="6.91028">
        <ele>1029</ele>
        <time>2015-05-31T08:37:11.464Z</time>
      </trkpt>
      <trkpt lat="48.01047" lon="6.91037">
        <ele>1029</ele>
        <time>2015-05-31T08:38:11.464Z</time>
      </trkpt>
      <trkpt lat="48.01048" lon="6.91037">
        <ele>1029</ele>
        <time>2015-05-31T08:39:11.469Z</time>
      </trkpt>
      <trkpt lat="48.01047" lon="6.91046">
        <ele>1029</ele>
        <time>2015-05-31T08:40:12.461Z</time>
      </trkpt>
      <trkpt lat="48.0105" lon="6.91044">
        <ele>1029</ele>
        <time>2015-05-31T08:41:12.464Z</time>
      </trkpt>
      <trkpt lat="48.0105" lon="6.91044">
        <ele>1029</ele>
        <time>2015-05-31T08:42:12.47Z</time>
      </trkpt>
      <trkpt lat="48.01052" lon="6.91043">
        <ele>1029</ele>
        <time>2015-05-31T08:43:13.464Z</time>
      </trkpt>
      <trkpt lat="48.01052" lon="6.91042">
        <ele>1029</ele>
        <time>2015-05-31T08:44:13.466Z</time>
      </trkpt>
      <trkpt lat="48.01053" lon="6.91044">
        <ele>1029</ele>
        <time>2015-05-31T08:45:14.468Z</time>
      </trkpt>
      <trkpt lat="48.01053" lon="6.91048">
        <ele>1029</ele>
        <time>2015-05-31T08:46:15.463Z</time>
      </trkpt>
      <trkpt lat="48.01052" lon="6.91042">
        <ele>1029</ele>
        <time>2015-05-31T08:47:15.465Z</time>
      </trkpt>
      <trkpt lat="48.01051" lon="6.91043">
        <ele>1029</ele>
        <time>2015-05-31T08:48:15.468Z</time>
      </trkpt>
      <trkpt lat="48.01046" lon="6.91037">
        <ele>1029</ele>
        <time>2015-05-31T08:49:16.463Z</time>
      </trkpt>
      <trkpt lat="48.01044" lon="6.91059">
        <ele>1029</ele>
        <time>2015-05-31T08:50:08.465Z</time>
      </trkpt>
      <trkpt lat="48.01043" lon="6.91082">
        <ele>1030</ele>
        <time>2015-05-31T08:50:29.47Z</time>
      </trkpt>
      <trkpt lat="48.01039" lon="6.91158">
        <ele>1033</ele>
        <time>2015-05-31T08:51:20.46Z</time>
      </trkpt>
      <trkpt lat="48.01018" lon="6.91236">
        <ele>1037</ele>
        <time>2015-05-31T08:52:15.466Z</time>
      </trkpt>
      <trkpt lat="48.01015" lon="6.91257">
        <ele>1039</ele>
        <time>2015-05-31T08:52:27.464Z</time>
      </trkpt>
      <trkpt lat="48.00997" lon="6.91319">
        <ele>1053</ele>
        <time>2015-05-31T08:53:06.461Z</time>
      </trkpt>
      <trkpt lat="48.00998" lon="6.91341">
        <ele>1055</ele>
        <time>2015-05-31T08:53:15.463Z</time>
      </trkpt>
      <trkpt lat="48.00999" lon="6.91361">
        <ele>1059</ele>
        <time>2015-05-31T08:53:24.461Z</time>
      </trkpt>
      <trkpt lat="48.00985" lon="6.91425">
        <ele>1064</ele>
        <time>2015-05-31T08:54:02.469Z</time>
      </trkpt>
      <trkpt lat="48.00992" lon="6.91444">
        <ele>1066</ele>
        <time>2015-05-31T08:54:10.46Z</time>
      </trkpt>
      <trkpt lat="48.00988" lon="6.91464">
        <ele>1068</ele>
        <time>2015-05-31T08:54:21.464Z</time>
      </trkpt>
      <trkpt lat="48.00994" lon="6.91492">
        <ele>1066</ele>
        <time>2015-05-31T08:54:35.464Z</time>
      </trkpt>
      <trkpt lat="48.00994" lon="6.91565">
        <ele>1074</ele>
        <time>2015-05-31T08:55:10.463Z</time>
      </trkpt>
      <trkpt lat="48.00994" lon="6.91586">
        <ele>1074</ele>
        <time>2015-05-31T08:55:25.461Z</time>
      </trkpt>
      <trkpt lat="48.00995" lon="6.91613">
        <ele>1079</ele>
        <time>2015-05-31T08:55:40.46Z</time>
      </trkpt>
      <trkpt lat="48.01004" lon="6.91688">
        <ele>1070</ele>
        <time>2015-05-31T08:56:20.46Z</time>
      </trkpt>
      <trkpt lat="48.01019" lon="6.91779">
        <ele>1074</ele>
        <time>2015-05-31T08:57:08.463Z</time>
      </trkpt>
      <trkpt lat="48.01025" lon="6.91807">
        <ele>1074</ele>
        <time>2015-05-31T08:57:23.461Z</time>
      </trkpt>
      <trkpt lat="48.01024" lon="6.91827">
        <ele>1075</ele>
        <time>2015-05-31T08:57:32.461Z</time>
      </trkpt>
      <trkpt lat="48.01031" lon="6.91864">
        <ele>1076</ele>
        <time>2015-05-31T08:57:48.469Z</time>
      </trkpt>
      <trkpt lat="48.01039" lon="6.91909">
        <ele>1076</ele>
        <time>2015-05-31T08:58:12.46Z</time>
      </trkpt>
      <trkpt lat="48.01043" lon="6.9193">
        <ele>1079</ele>
        <time>2015-05-31T08:58:23.46Z</time>
      </trkpt>
      <trkpt lat="48.01048" lon="6.91959">
        <ele>1079</ele>
        <time>2015-05-31T08:59:23.47Z</time>
      </trkpt>
      <trkpt lat="48.01046" lon="6.91965">
        <ele>1080</ele>
        <time>2015-05-31T09:00:24.46Z</time>
      </trkpt>
      <trkpt lat="48.01047" lon="6.92037">
        <ele>1086</ele>
        <time>2015-05-31T09:01:12.473Z</time>
      </trkpt>
      <trkpt lat="48.01044" lon="6.92095">
        <ele>1094</ele>
        <time>2015-05-31T09:01:52.469Z</time>
      </trkpt>
      <trkpt lat="48.01048" lon="6.92116">
        <ele>1095</ele>
        <time>2015-05-31T09:02:00.466Z</time>
      </trkpt>
      <trkpt lat="48.01063" lon="6.92175">
        <ele>1100</ele>
        <time>2015-05-31T09:02:37.464Z</time>
      </trkpt>
      <trkpt lat="48.01078" lon="6.92208">
        <ele>1102</ele>
        <time>2015-05-31T09:03:01.461Z</time>
      </trkpt>
      <trkpt lat="48.01099" lon="6.92243">
        <ele>1106</ele>
        <time>2015-05-31T09:03:30.465Z</time>
      </trkpt>
      <trkpt lat="48.0109" lon="6.92304">
        <ele>1111</ele>
        <time>2015-05-31T09:04:14.47Z</time>
      </trkpt>
      <trkpt lat="48.01101" lon="6.92357">
        <ele>1111</ele>
        <time>2015-05-31T09:04:37.46Z</time>
      </trkpt>
      <trkpt lat="48.01113" lon="6.92377">
        <ele>1111</ele>
        <time>2015-05-31T09:04:47.461Z</time>
      </trkpt>
      <trkpt lat="48.0115" lon="6.9246">
        <ele>1106</ele>
        <time>2015-05-31T09:05:41.46Z</time>
      </trkpt>
      <trkpt lat="48.01161" lon="6.92472">
        <ele>1107</ele>
        <time>2015-05-31T09:05:50.46Z</time>
      </trkpt>
      <trkpt lat="48.01169" lon="6.92499">
        <ele>1112</ele>
        <time>2015-05-31T09:06:05.461Z</time>
      </trkpt>
      <trkpt lat="48.01179" lon="6.92515">
        <ele>1110</ele>
        <time>2015-05-31T09:06:13.46Z</time>
      </trkpt>
      <trkpt lat="48.01195" lon="6.9254">
        <ele>1108</ele>
        <time>2015-05-31T09:06:30.46Z</time>
      </trkpt>
      <trkpt lat="48.01208" lon="6.92556">
        <ele>1107</ele>
        <time>2015-05-31T09:06:44.465Z</time>
      </trkpt>
      <trkpt lat="48.01224" lon="6.92551">
        <ele>1108</ele>
        <time>2015-05-31T09:06:52.463Z</time>
      </trkpt>
      <trkpt lat="48.01271" lon="6.9256">
        <ele>1115</ele>
        <time>2015-05-31T09:07:28.461Z</time>
      </trkpt>
      <trkpt lat="48.01286" lon="6.92564">
        <ele>1116</ele>
        <time>2015-05-31T09:07:38.461Z</time>
      </trkpt>
      <trkpt lat="48.0132" lon="6.92567">
        <ele>1116</ele>
        <time>2015-05-31T09:08:02.461Z</time>
      </trkpt>
      <trkpt lat="48.01345" lon="6.92566">
        <ele>1121</ele>
        <time>2015-05-31T09:08:20.46Z</time>
      </trkpt>
      <trkpt lat="48.01382" lon="6.92586">
        <ele>1108</ele>
        <time>2015-05-31T09:08:46.463Z</time>
      </trkpt>
      <trkpt lat="48.01403" lon="6.92592">
        <ele>1113</ele>
        <time>2015-05-31T09:09:00.463Z</time>
      </trkpt>
      <trkpt lat="48.01433" lon="6.92599">
        <ele>1120</ele>
        <time>2015-05-31T09:09:21.46Z</time>
      </trkpt>
      <trkpt lat="48.015" lon="6.92655">
        <ele>1115</ele>
        <time>2015-05-31T09:10:16.46Z</time>
      </trkpt>
      <trkpt lat="48.01516" lon="6.92676">
        <ele>1114</ele>
        <time>2015-05-31T09:10:31.463Z</time>
      </trkpt>
      <trkpt lat="48.01558" lon="6.92714">
        <ele>1115</ele>
        <time>2015-05-31T09:11:04.463Z</time>
      </trkpt>
      <trkpt lat="48.01578" lon="6.92768">
        <ele>1104</ele>
        <time>2015-05-31T09:11:33.46Z</time>
      </trkpt>
      <trkpt lat="48.01592" lon="6.92802">
        <ele>1105</ele>
        <time>2015-05-31T09:11:48.459Z</time>
      </trkpt>
      <trkpt lat="48.01613" lon="6.92848">
        <ele>1098</ele>
        <time>2015-05-31T09:12:14.459Z</time>
      </trkpt>
      <trkpt lat="48.01622" lon="6.9287">
        <ele>1098</ele>
        <time>2015-05-31T09:12:22.459Z</time>
      </trkpt>
      <trkpt lat="48.01634" lon="6.92884">
        <ele>1098</ele>
        <time>2015-05-31T09:12:33.46Z</time>
      </trkpt>
      <trkpt lat="48.01632" lon="6.92876">
        <ele>1098</ele>
        <time>2015-05-31T09:13:33.465Z</time>
      </trkpt>
      <trkpt lat="48.0164" lon="6.92878">
        <ele>1098</ele>
        <time>2015-05-31T09:14:33.468Z</time>
      </trkpt>
      <trkpt lat="48.01648" lon="6.92876">
        <ele>1099</ele>
        <time>2015-05-31T09:15:33.469Z</time>
      </trkpt>
      <trkpt lat="48.01648" lon="6.92876">
        <ele>1098</ele>
        <time>2015-05-31T09:16:34.465Z</time>
      </trkpt>
      <trkpt lat="48.01647" lon="6.92876">
        <ele>1098</ele>
        <time>2015-05-31T09:17:34.47Z</time>
      </trkpt>
      <trkpt lat="48.01645" lon="6.92882">
        <ele>1098</ele>
        <time>2015-05-31T09:18:34.475Z</time>
      </trkpt>
      <trkpt lat="48.01646" lon="6.92883">
        <ele>1098</ele>
        <time>2015-05-31T09:19:34.48Z</time>
      </trkpt>
      <trkpt lat="48.01637" lon="6.92882">
        <ele>1098</ele>
        <time>2015-05-31T09:20:35.47Z</time>
      </trkpt>
      <trkpt lat="48.01654" lon="6.92926">
        <ele>1097</ele>
        <time>2015-05-31T09:21:11.464Z</time>
      </trkpt>
      <trkpt lat="48.01669" lon="6.92976">
        <ele>1099</ele>
        <time>2015-05-31T09:21:41.463Z</time>
      </trkpt>
      <trkpt lat="48.01675" lon="6.92994">
        <ele>1101</ele>
        <time>2015-05-31T09:21:51.463Z</time>
      </trkpt>
      <trkpt lat="48.01681" lon="6.93013">
        <ele>1102</ele>
        <time>2015-05-31T09:22:00.465Z</time>
      </trkpt>
      <trkpt lat="48.01686" lon="6.93045">
        <ele>1102</ele>
        <time>2015-05-31T09:22:16.464Z</time>
      </trkpt>
      <trkpt lat="48.01703" lon="6.93113">
        <ele>1109</ele>
        <time>2015-05-31T09:23:01.464Z</time>
      </trkpt>
      <trkpt lat="48.01712" lon="6.9318">
        <ele>1112</ele>
        <time>2015-05-31T09:23:38.465Z</time>
      </trkpt>
      <trkpt lat="48.01719" lon="6.93198">
        <ele>1112</ele>
        <time>2015-05-31T09:23:48.46Z</time>
      </trkpt>
      <trkpt lat="48.01751" lon="6.93222">
        <ele>1115</ele>
        <time>2015-05-31T09:24:12.461Z</time>
      </trkpt>
      <trkpt lat="48.01772" lon="6.93228">
        <ele>1114</ele>
        <time>2015-05-31T09:24:28.461Z</time>
      </trkpt>
      <trkpt lat="48.01796" lon="6.93235">
        <ele>1114</ele>
        <time>2015-05-31T09:24:48.469Z</time>
      </trkpt>
      <trkpt lat="48.0189" lon="6.93266">
        <ele>1111</ele>
        <time>2015-05-31T09:25:49.463Z</time>
      </trkpt>
      <trkpt lat="48.01936" lon="6.93276">
        <ele>1118</ele>
        <time>2015-05-31T09:26:29.461Z</time>
      </trkpt>
      <trkpt lat="48.01973" lon="6.93304">
        <ele>1121</ele>
        <time>2015-05-31T09:26:59.461Z</time>
      </trkpt>
      <trkpt lat="48.01987" lon="6.93317">
        <ele>1123</ele>
        <time>2015-05-31T09:27:13.461Z</time>
      </trkpt>
      <trkpt lat="48.02004" lon="6.93328">
        <ele>1129</ele>
        <time>2015-05-31T09:27:28.463Z</time>
      </trkpt>
      <trkpt lat="48.02016" lon="6.9334">
        <ele>1129</ele>
        <time>2015-05-31T09:27:40.46Z</time>
      </trkpt>
      <trkpt lat="48.02051" lon="6.93363">
        <ele>1130</ele>
        <time>2015-05-31T09:28:11.461Z</time>
      </trkpt>
      <trkpt lat="48.02076" lon="6.93379">
        <ele>1131</ele>
        <time>2015-05-31T09:28:29.463Z</time>
      </trkpt>
      <trkpt lat="48.02097" lon="6.93392">
        <ele>1137</ele>
        <time>2015-05-31T09:28:41.461Z</time>
      </trkpt>
      <trkpt lat="48.0211" lon="6.93404">
        <ele>1137</ele>
        <time>2015-05-31T09:29:18.464Z</time>
      </trkpt>
      <trkpt lat="48.0212" lon="6.93421">
        <ele>1132</ele>
        <time>2015-05-31T09:29:29.463Z</time>
      </trkpt>
      <trkpt lat="48.02132" lon="6.93433">
        <ele>1132</ele>
        <time>2015-05-31T09:29:36.463Z</time>
      </trkpt>
      <trkpt lat="48.02136" lon="6.93454">
        <ele>1131</ele>
        <time>2015-05-31T09:29:47.458Z</time>
      </trkpt>
      <trkpt lat="48.02146" lon="6.93468">
        <ele>1130</ele>
        <time>2015-05-31T09:29:53.461Z</time>
      </trkpt>
      <trkpt lat="48.02161" lon="6.93497">
        <ele>1131</ele>
        <time>2015-05-31T09:30:07.46Z</time>
      </trkpt>
      <trkpt lat="48.02171" lon="6.93511">
        <ele>1131</ele>
        <time>2015-05-31T09:30:17.461Z</time>
      </trkpt>
      <trkpt lat="48.02203" lon="6.93561">
        <ele>1128</ele>
        <time>2015-05-31T09:30:44.463Z</time>
      </trkpt>
      <trkpt lat="48.02212" lon="6.9358">
        <ele>1128</ele>
        <time>2015-05-31T09:30:55.465Z</time>
      </trkpt>
      <trkpt lat="48.02231" lon="6.93611">
        <ele>1125</ele>
        <time>2015-05-31T09:31:15.463Z</time>
      </trkpt>
      <trkpt lat="48.02243" lon="6.93623">
        <ele>1126</ele>
        <time>2015-05-31T09:31:23.469Z</time>
      </trkpt>
      <trkpt lat="48.02287" lon="6.93682">
        <ele>1134</ele>
        <time>2015-05-31T09:32:05.485Z</time>
      </trkpt>
      <trkpt lat="48.0232" lon="6.93736">
        <ele>1137</ele>
        <time>2015-05-31T09:32:41.463Z</time>
      </trkpt>
      <trkpt lat="48.02343" lon="6.93764">
        <ele>1142</ele>
        <time>2015-05-31T09:32:58.463Z</time>
      </trkpt>
      <trkpt lat="48.02379" lon="6.93816">
        <ele>1145</ele>
        <time>2015-05-31T09:33:45.466Z</time>
      </trkpt>
      <trkpt lat="48.02411" lon="6.93875">
        <ele>1148</ele>
        <time>2015-05-31T09:34:20.461Z</time>
      </trkpt>
      <trkpt lat="48.02428" lon="6.9389">
        <ele>1151</ele>
        <time>2015-05-31T09:34:35.463Z</time>
      </trkpt>
      <trkpt lat="48.02458" lon="6.9391">
        <ele>1152</ele>
        <time>2015-05-31T09:34:59.463Z</time>
      </trkpt>
      <trkpt lat="48.02479" lon="6.93923">
        <ele>1154</ele>
        <time>2015-05-31T09:35:15.463Z</time>
      </trkpt>
      <trkpt lat="48.02535" lon="6.93966">
        <ele>1156</ele>
        <time>2015-05-31T09:35:57.463Z</time>
      </trkpt>
      <trkpt lat="48.02589" lon="6.94022">
        <ele>1155</ele>
        <time>2015-05-31T09:36:43.463Z</time>
      </trkpt>
      <trkpt lat="48.02613" lon="6.94051">
        <ele>1153</ele>
        <time>2015-05-31T09:37:06.461Z</time>
      </trkpt>
      <trkpt lat="48.02626" lon="6.94059">
        <ele>1153</ele>
        <time>2015-05-31T09:37:13.461Z</time>
      </trkpt>
      <trkpt lat="48.02638" lon="6.94075">
        <ele>1152</ele>
        <time>2015-05-31T09:37:25.461Z</time>
      </trkpt>
      <trkpt lat="48.02651" lon="6.94083">
        <ele>1151</ele>
        <time>2015-05-31T09:37:33.461Z</time>
      </trkpt>
      <trkpt lat="48.02704" lon="6.94137">
        <ele>1140</ele>
        <time>2015-05-31T09:38:16.461Z</time>
      </trkpt>
      <trkpt lat="48.02716" lon="6.94149">
        <ele>1140</ele>
        <time>2015-05-31T09:38:24.461Z</time>
      </trkpt>
      <trkpt lat="48.02782" lon="6.94211">
        <ele>1133</ele>
        <time>2015-05-31T09:39:12.461Z</time>
      </trkpt>
      <trkpt lat="48.02818" lon="6.94256">
        <ele>1129</ele>
        <time>2015-05-31T09:39:43.461Z</time>
      </trkpt>
      <trkpt lat="48.0284" lon="6.94277">
        <ele>1138</ele>
        <time>2015-05-31T09:40:05.46Z</time>
      </trkpt>
      <trkpt lat="48.02866" lon="6.94303">
        <ele>1140</ele>
        <time>2015-05-31T09:40:36.461Z</time>
      </trkpt>
      <trkpt lat="48.02907" lon="6.94336">
        <ele>1145</ele>
        <time>2015-05-31T09:41:14.461Z</time>
      </trkpt>
      <trkpt lat="48.02951" lon="6.94394">
        <ele>1156</ele>
        <time>2015-05-31T09:42:00.463Z</time>
      </trkpt>
      <trkpt lat="48.02967" lon="6.94413">
        <ele>1158</ele>
        <time>2015-05-31T09:42:19.46Z</time>
      </trkpt>
      <trkpt lat="48.03045" lon="6.94485">
        <ele>1169</ele>
        <time>2015-05-31T09:43:19.469Z</time>
      </trkpt>
      <trkpt lat="48.03079" lon="6.9453">
        <ele>1165</ele>
        <time>2015-05-31T09:43:58.461Z</time>
      </trkpt>
      <trkpt lat="48.03122" lon="6.9456">
        <ele>1171</ele>
        <time>2015-05-31T09:44:37.46Z</time>
      </trkpt>
      <trkpt lat="48.03137" lon="6.94558">
        <ele>1172</ele>
        <time>2015-05-31T09:44:46.461Z</time>
      </trkpt>
      <trkpt lat="48.0316" lon="6.94569">
        <ele>1173</ele>
        <time>2015-05-31T09:45:06.46Z</time>
      </trkpt>
      <trkpt lat="48.03173" lon="6.94579">
        <ele>1174</ele>
        <time>2015-05-31T09:45:16.461Z</time>
      </trkpt>
      <trkpt lat="48.03186" lon="6.94586">
        <ele>1172</ele>
        <time>2015-05-31T09:45:23.46Z</time>
      </trkpt>
      <trkpt lat="48.03259" lon="6.94637">
        <ele>1173</ele>
        <time>2015-05-31T09:46:21.46Z</time>
      </trkpt>
      <trkpt lat="48.03262" lon="6.94657">
        <ele>1172</ele>
        <time>2015-05-31T09:46:35.46Z</time>
      </trkpt>
      <trkpt lat="48.03266" lon="6.94685">
        <ele>1163</ele>
        <time>2015-05-31T09:47:35.475Z</time>
      </trkpt>
      <trkpt lat="48.03266" lon="6.94685">
        <ele>1163</ele>
        <time>2015-05-31T09:48:36.461Z</time>
      </trkpt>
      <trkpt lat="48.03267" lon="6.94685">
        <ele>1163</ele>
        <time>2015-05-31T09:49:36.466Z</time>
      </trkpt>
      <trkpt lat="48.03269" lon="6.94684">
        <ele>1163</ele>
        <time>2015-05-31T09:50:37.465Z</time>
      </trkpt>
      <trkpt lat="48.03269" lon="6.94684">
        <ele>1163</ele>
        <time>2015-05-31T09:51:37.469Z</time>
      </trkpt>
      <trkpt lat="48.03269" lon="6.94684">
        <ele>1163</ele>
        <time>2015-05-31T09:52:38.469Z</time>
      </trkpt>
      <trkpt lat="48.03269" lon="6.94684">
        <ele>1163</ele>
        <time>2015-05-31T09:53:38.469Z</time>
      </trkpt>
      <trkpt lat="48.03269" lon="6.94684">
        <ele>1163</ele>
        <time>2015-05-31T09:54:39.465Z</time>
      </trkpt>
      <trkpt lat="48.03268" lon="6.94681">
        <ele>1163</ele>
        <time>2015-05-31T09:55:39.468Z</time>
      </trkpt>
      <trkpt lat="48.03268" lon="6.94681">
        <ele>1163</ele>
        <time>2015-05-31T09:56:39.475Z</time>
      </trkpt>
      <trkpt lat="48.03268" lon="6.94681">
        <ele>1163</ele>
        <time>2015-05-31T09:57:40.464Z</time>
      </trkpt>
      <trkpt lat="48.03268" lon="6.94681">
        <ele>1163</ele>
        <time>2015-05-31T09:58:40.468Z</time>
      </trkpt>
      <trkpt lat="48.03268" lon="6.94681">
        <ele>1163</ele>
        <time>2015-05-31T09:59:40.47Z</time>
      </trkpt>
      <trkpt lat="48.03271" lon="6.94679">
        <ele>1163</ele>
        <time>2015-05-31T10:00:41.469Z</time>
      </trkpt>
      <trkpt lat="48.03268" lon="6.94684">
        <ele>1163</ele>
        <time>2015-05-31T10:01:41.469Z</time>
      </trkpt>
      <trkpt lat="48.03268" lon="6.94684">
        <ele>1163</ele>
        <time>2015-05-31T10:02:42.465Z</time>
      </trkpt>
      <trkpt lat="48.03267" lon="6.9468">
        <ele>1164</ele>
        <time>2015-05-31T10:03:42.465Z</time>
      </trkpt>
      <trkpt lat="48.03267" lon="6.9468">
        <ele>1164</ele>
        <time>2015-05-31T10:04:42.468Z</time>
      </trkpt>
      <trkpt lat="48.03267" lon="6.9468">
        <ele>1164</ele>
        <time>2015-05-31T10:05:43.475Z</time>
      </trkpt>
      <trkpt lat="48.03267" lon="6.9468">
        <ele>1164</ele>
        <time>2015-05-31T10:06:44.469Z</time>
      </trkpt>
      <trkpt lat="48.03267" lon="6.9468">
        <ele>1164</ele>
        <time>2015-05-31T10:07:44.469Z</time>
      </trkpt>
      <trkpt lat="48.03267" lon="6.9468">
        <ele>1164</ele>
        <time>2015-05-31T10:08:45.469Z</time>
      </trkpt>
      <trkpt lat="48.03267" lon="6.9468">
        <ele>1164</ele>
        <time>2015-05-31T10:09:45.485Z</time>
      </trkpt>
      <trkpt lat="48.03267" lon="6.9468">
        <ele>1164</ele>
        <time>2015-05-31T10:10:46.466Z</time>
      </trkpt>
      <trkpt lat="48.03267" lon="6.9468">
        <ele>1164</ele>
        <time>2015-05-31T10:11:46.471Z</time>
      </trkpt>
      <trkpt lat="48.03267" lon="6.9468">
        <ele>1164</ele>
        <time>2015-05-31T10:12:47.469Z</time>
      </trkpt>
      <trkpt lat="48.03265" lon="6.9468">
        <ele>1164</ele>
        <time>2015-05-31T10:13:47.47Z</time>
      </trkpt>
      <trkpt lat="48.03265" lon="6.9468">
        <ele>1164</ele>
        <time>2015-05-31T10:14:47.476Z</time>
      </trkpt>
      <trkpt lat="48.03266" lon="6.9468">
        <ele>1164</ele>
        <time>2015-05-31T10:15:48.469Z</time>
      </trkpt>
      <trkpt lat="48.03266" lon="6.9468">
        <ele>1164</ele>
        <time>2015-05-31T10:16:48.471Z</time>
      </trkpt>
      <trkpt lat="48.03266" lon="6.9468">
        <ele>1164</ele>
        <time>2015-05-31T10:17:49.47Z</time>
      </trkpt>
      <trkpt lat="48.03266" lon="6.9468">
        <ele>1164</ele>
        <time>2015-05-31T10:18:50.469Z</time>
      </trkpt>
      <trkpt lat="48.03266" lon="6.9468">
        <ele>1164</ele>
        <time>2015-05-31T10:19:50.469Z</time>
      </trkpt>
      <trkpt lat="48.03266" lon="6.9468">
        <ele>1164</ele>
        <time>2015-05-31T10:20:50.47Z</time>
      </trkpt>
      <trkpt lat="48.03266" lon="6.9468">
        <ele>1164</ele>
        <time>2015-05-31T10:21:51.469Z</time>
      </trkpt>
      <trkpt lat="48.03266" lon="6.9468">
        <ele>1164</ele>
        <time>2015-05-31T10:22:51.469Z</time>
      </trkpt>
      <trkpt lat="48.03266" lon="6.9468">
        <ele>1164</ele>
        <time>2015-05-31T10:23:51.475Z</time>
      </trkpt>
      <trkpt lat="48.03266" lon="6.94684">
        <ele>1163</ele>
        <time>2015-05-31T10:24:52.47Z</time>
      </trkpt>
      <trkpt lat="48.03266" lon="6.94681">
        <ele>1163</ele>
        <time>2015-05-31T10:25:52.47Z</time>
      </trkpt>
      <trkpt lat="48.03266" lon="6.94681">
        <ele>1163</ele>
        <time>2015-05-31T10:26:52.47Z</time>
      </trkpt>
      <trkpt lat="48.03266" lon="6.94681">
        <ele>1163</ele>
        <time>2015-05-31T10:27:53.468Z</time>
      </trkpt>
      <trkpt lat="48.03266" lon="6.94681">
        <ele>1163</ele>
        <time>2015-05-31T10:28:54.47Z</time>
      </trkpt>
      <trkpt lat="48.03266" lon="6.94681">
        <ele>1163</ele>
        <time>2015-05-31T10:29:55.466Z</time>
      </trkpt>
      <trkpt lat="48.03267" lon="6.94681">
        <ele>1163</ele>
        <time>2015-05-31T10:30:55.47Z</time>
      </trkpt>
      <trkpt lat="48.03267" lon="6.94681">
        <ele>1163</ele>
        <time>2015-05-31T10:31:55.47Z</time>
      </trkpt>
      <trkpt lat="48.03267" lon="6.94681">
        <ele>1163</ele>
        <time>2015-05-31T10:32:55.48Z</time>
      </trkpt>
      <trkpt lat="48.03267" lon="6.94681">
        <ele>1163</ele>
        <time>2015-05-31T10:33:56.47Z</time>
      </trkpt>
      <trkpt lat="48.03267" lon="6.94681">
        <ele>1163</ele>
        <time>2015-05-31T10:34:56.47Z</time>
      </trkpt>
      <trkpt lat="48.03267" lon="6.94681">
        <ele>1163</ele>
        <time>2015-05-31T10:35:56.47Z</time>
      </trkpt>
      <trkpt lat="48.03267" lon="6.94681">
        <ele>1163</ele>
        <time>2015-05-31T10:36:57.468Z</time>
      </trkpt>
      <trkpt lat="48.03267" lon="6.94681">
        <ele>1163</ele>
        <time>2015-05-31T10:37:57.469Z</time>
      </trkpt>
      <trkpt lat="48.03267" lon="6.94681">
        <ele>1163</ele>
        <time>2015-05-31T10:38:57.47Z</time>
      </trkpt>
      <trkpt lat="48.03267" lon="6.94681">
        <ele>1163</ele>
        <time>2015-05-31T10:39:57.471Z</time>
      </trkpt>
      <trkpt lat="48.03267" lon="6.94681">
        <ele>1163</ele>
        <time>2015-05-31T10:40:57.471Z</time>
      </trkpt>
      <trkpt lat="48.03267" lon="6.94681">
        <ele>1163</ele>
        <time>2015-05-31T10:41:57.474Z</time>
      </trkpt>
      <trkpt lat="48.03267" lon="6.94681">
        <ele>1163</ele>
        <time>2015-05-31T10:42:57.475Z</time>
      </trkpt>
      <trkpt lat="48.03267" lon="6.94681">
        <ele>1163</ele>
        <time>2015-05-31T10:43:57.475Z</time>
      </trkpt>
      <trkpt lat="48.03268" lon="6.9468">
        <ele>1163</ele>
        <time>2015-05-31T10:44:58.47Z</time>
      </trkpt>
      <trkpt lat="48.03269" lon="6.9468">
        <ele>1163</ele>
        <time>2015-05-31T10:45:58.474Z</time>
      </trkpt>
      <trkpt lat="48.03268" lon="6.9468">
        <ele>1163</ele>
        <time>2015-05-31T10:46:58.475Z</time>
      </trkpt>
      <trkpt lat="48.03267" lon="6.94679">
        <ele>1164</ele>
        <time>2015-05-31T10:47:59.475Z</time>
      </trkpt>
      <trkpt lat="48.03267" lon="6.9468">
        <ele>1164</ele>
        <time>2015-05-31T10:48:59.476Z</time>
      </trkpt>
      <trkpt lat="48.03267" lon="6.9468">
        <ele>1164</ele>
        <time>2015-05-31T10:49:59.488Z</time>
      </trkpt>
      <trkpt lat="48.03267" lon="6.9468">
        <ele>1164</ele>
        <time>2015-05-31T10:51:00.474Z</time>
      </trkpt>
      <trkpt lat="48.03267" lon="6.94681">
        <ele>1163</ele>
        <time>2015-05-31T10:52:00.476Z</time>
      </trkpt>
      <trkpt lat="48.03268" lon="6.94682">
        <ele>1163</ele>
        <time>2015-05-31T10:53:00.476Z</time>
      </trkpt>
      <trkpt lat="48.0327" lon="6.94685">
        <ele>1163</ele>
        <time>2015-05-31T10:54:01.469Z</time>
      </trkpt>
      <trkpt lat="48.0327" lon="6.94682">
        <ele>1163</ele>
        <time>2015-05-31T10:55:01.471Z</time>
      </trkpt>
      <trkpt lat="48.0327" lon="6.9468">
        <ele>1163</ele>
        <time>2015-05-31T10:56:02.474Z</time>
      </trkpt>
      <trkpt lat="48.0327" lon="6.94678">
        <ele>1164</ele>
        <time>2015-05-31T10:57:03.475Z</time>
      </trkpt>
      <trkpt lat="48.03284" lon="6.94673">
        <ele>1164</ele>
        <time>2015-05-31T10:57:36.466Z</time>
      </trkpt>
      <trkpt lat="48.03298" lon="6.94673">
        <ele>1165</ele>
        <time>2015-05-31T10:57:49.47Z</time>
      </trkpt>
      <trkpt lat="48.03311" lon="6.94666">
        <ele>1175</ele>
        <time>2015-05-31T10:58:02.47Z</time>
      </trkpt>
      <trkpt lat="48.03325" lon="6.94671">
        <ele>1171</ele>
        <time>2015-05-31T10:58:14.471Z</time>
      </trkpt>
      <trkpt lat="48.03346" lon="6.94671">
        <ele>1173</ele>
        <time>2015-05-31T10:58:34.47Z</time>
      </trkpt>
      <trkpt lat="48.03371" lon="6.94674">
        <ele>1170</ele>
        <time>2015-05-31T10:58:55.469Z</time>
      </trkpt>
      <trkpt lat="48.03439" lon="6.94676">
        <ele>1175</ele>
        <time>2015-05-31T10:59:50.47Z</time>
      </trkpt>
      <trkpt lat="48.03477" lon="6.94693">
        <ele>1176</ele>
        <time>2015-05-31T11:00:23.465Z</time>
      </trkpt>
      <trkpt lat="48.03488" lon="6.94707">
        <ele>1177</ele>
        <time>2015-05-31T11:00:38.464Z</time>
      </trkpt>
      <trkpt lat="48.03515" lon="6.94721">
        <ele>1182</ele>
        <time>2015-05-31T11:01:01.465Z</time>
      </trkpt>
      <trkpt lat="48.03541" lon="6.94738">
        <ele>1183</ele>
        <time>2015-05-31T11:01:26.468Z</time>
      </trkpt>
      <trkpt lat="48.03554" lon="6.94745">
        <ele>1184</ele>
        <time>2015-05-31T11:01:39.465Z</time>
      </trkpt>
      <trkpt lat="48.03567" lon="6.94755">
        <ele>1189</ele>
        <time>2015-05-31T11:01:53.466Z</time>
      </trkpt>
      <trkpt lat="48.03595" lon="6.94785">
        <ele>1192</ele>
        <time>2015-05-31T11:02:24.463Z</time>
      </trkpt>
      <trkpt lat="48.03599" lon="6.94805">
        <ele>1193</ele>
        <time>2015-05-31T11:02:36.464Z</time>
      </trkpt>
      <trkpt lat="48.03615" lon="6.94826">
        <ele>1193</ele>
        <time>2015-05-31T11:02:56.464Z</time>
      </trkpt>
      <trkpt lat="48.03651" lon="6.94862">
        <ele>1196</ele>
        <time>2015-05-31T11:03:31.465Z</time>
      </trkpt>
      <trkpt lat="48.03666" lon="6.94883">
        <ele>1197</ele>
        <time>2015-05-31T11:03:49.469Z</time>
      </trkpt>
      <trkpt lat="48.0365" lon="6.94915">
        <ele>1197</ele>
        <time>2015-05-31T11:04:23.465Z</time>
      </trkpt>
      <trkpt lat="48.03639" lon="6.94928">
        <ele>1198</ele>
        <time>2015-05-31T11:04:36.465Z</time>
      </trkpt>
      <trkpt lat="48.03632" lon="6.94972">
        <ele>1198</ele>
        <time>2015-05-31T11:04:59.468Z</time>
      </trkpt>
      <trkpt lat="48.03638" lon="6.94991">
        <ele>1198</ele>
        <time>2015-05-31T11:05:06.468Z</time>
      </trkpt>
      <trkpt lat="48.03648" lon="6.95008">
        <ele>1197</ele>
        <time>2015-05-31T11:05:17.465Z</time>
      </trkpt>
      <trkpt lat="48.0366" lon="6.95016">
        <ele>1197</ele>
        <time>2015-05-31T11:05:28.461Z</time>
      </trkpt>
      <trkpt lat="48.03674" lon="6.95021">
        <ele>1195</ele>
        <time>2015-05-31T11:05:41.469Z</time>
      </trkpt>
      <trkpt lat="48.03681" lon="6.95048">
        <ele>1194</ele>
        <time>2015-05-31T11:06:03.465Z</time>
      </trkpt>
      <trkpt lat="48.03686" lon="6.95072">
        <ele>1194</ele>
        <time>2015-05-31T11:06:13.464Z</time>
      </trkpt>
      <trkpt lat="48.03693" lon="6.95091">
        <ele>1188</ele>
        <time>2015-05-31T11:06:23.463Z</time>
      </trkpt>
      <trkpt lat="48.03697" lon="6.95111">
        <ele>1185</ele>
        <time>2015-05-31T11:06:36.459Z</time>
      </trkpt>
      <trkpt lat="48.03706" lon="6.95126">
        <ele>1182</ele>
        <time>2015-05-31T11:06:49.458Z</time>
      </trkpt>
      <trkpt lat="48.03727" lon="6.95187">
        <ele>1167</ele>
        <time>2015-05-31T11:07:41.46Z</time>
      </trkpt>
      <trkpt lat="48.03743" lon="6.95253">
        <ele>1159</ele>
        <time>2015-05-31T11:08:38.458Z</time>
      </trkpt>
      <trkpt lat="48.0376" lon="6.9526">
        <ele>1156</ele>
        <time>2015-05-31T11:09:02.456Z</time>
      </trkpt>
      <trkpt lat="48.03759" lon="6.95281">
        <ele>1154</ele>
        <time>2015-05-31T11:09:22.458Z</time>
      </trkpt>
      <trkpt lat="48.0376" lon="6.95319">
        <ele>1152</ele>
        <time>2015-05-31T11:09:51.46Z</time>
      </trkpt>
      <trkpt lat="48.03794" lon="6.95367">
        <ele>1148</ele>
        <time>2015-05-31T11:10:33.46Z</time>
      </trkpt>
      <trkpt lat="48.038" lon="6.95387">
        <ele>1147</ele>
        <time>2015-05-31T11:10:49.458Z</time>
      </trkpt>
      <trkpt lat="48.03808" lon="6.95406">
        <ele>1147</ele>
        <time>2015-05-31T11:11:01.46Z</time>
      </trkpt>
      <trkpt lat="48.0382" lon="6.95428">
        <ele>1149</ele>
        <time>2015-05-31T11:11:31.46Z</time>
      </trkpt>
      <trkpt lat="48.03826" lon="6.95433">
        <ele>1149</ele>
        <time>2015-05-31T11:12:31.466Z</time>
      </trkpt>
      <trkpt lat="48.03826" lon="6.95435">
        <ele>1149</ele>
        <time>2015-05-31T11:13:32.46Z</time>
      </trkpt>
      <trkpt lat="48.03824" lon="6.95426">
        <ele>1149</ele>
        <time>2015-05-31T11:14:32.465Z</time>
      </trkpt>
      <trkpt lat="48.03826" lon="6.95429">
        <ele>1149</ele>
        <time>2015-05-31T11:15:32.465Z</time>
      </trkpt>
      <trkpt lat="48.03829" lon="6.95436">
        <ele>1149</ele>
        <time>2015-05-31T11:16:32.466Z</time>
      </trkpt>
      <trkpt lat="48.03829" lon="6.95456">
        <ele>1150</ele>
        <time>2015-05-31T11:16:48.46Z</time>
      </trkpt>
      <trkpt lat="48.03835" lon="6.95474">
        <ele>1154</ele>
        <time>2015-05-31T11:17:05.456Z</time>
      </trkpt>
      <trkpt lat="48.03857" lon="6.95535">
        <ele>1156</ele>
        <time>2015-05-31T11:17:51.458Z</time>
      </trkpt>
      <trkpt lat="48.03871" lon="6.95565">
        <ele>1155</ele>
        <time>2015-05-31T11:18:12.461Z</time>
      </trkpt>
      <trkpt lat="48.03879" lon="6.95583">
        <ele>1155</ele>
        <time>2015-05-31T11:18:23.465Z</time>
      </trkpt>
      <trkpt lat="48.03896" lon="6.95643">
        <ele>1155</ele>
        <time>2015-05-31T11:18:57.458Z</time>
      </trkpt>
      <trkpt lat="48.03912" lon="6.95682">
        <ele>1156</ele>
        <time>2015-05-31T11:19:25.456Z</time>
      </trkpt>
      <trkpt lat="48.03931" lon="6.95734">
        <ele>1159</ele>
        <time>2015-05-31T11:19:59.455Z</time>
      </trkpt>
      <trkpt lat="48.03937" lon="6.95757">
        <ele>1159</ele>
        <time>2015-05-31T11:20:14.458Z</time>
      </trkpt>
      <trkpt lat="48.0396" lon="6.95815">
        <ele>1159</ele>
        <time>2015-05-31T11:21:04.455Z</time>
      </trkpt>
      <trkpt lat="48.03966" lon="6.95834">
        <ele>1158</ele>
        <time>2015-05-31T11:21:11.455Z</time>
      </trkpt>
      <trkpt lat="48.03974" lon="6.95854">
        <ele>1157</ele>
        <time>2015-05-31T11:21:24.455Z</time>
      </trkpt>
      <trkpt lat="48.03982" lon="6.95872">
        <ele>1157</ele>
        <time>2015-05-31T11:21:38.453Z</time>
      </trkpt>
      <trkpt lat="48.0399" lon="6.95892">
        <ele>1156</ele>
        <time>2015-05-31T11:21:51.454Z</time>
      </trkpt>
      <trkpt lat="48.04027" lon="6.95967">
        <ele>1145</ele>
        <time>2015-05-31T11:22:34.456Z</time>
      </trkpt>
      <trkpt lat="48.04045" lon="6.9598">
        <ele>1145</ele>
        <time>2015-05-31T11:22:51.455Z</time>
      </trkpt>
      <trkpt lat="48.04057" lon="6.9599">
        <ele>1145</ele>
        <time>2015-05-31T11:23:03.464Z</time>
      </trkpt>
      <trkpt lat="48.04083" lon="6.96016">
        <ele>1141</ele>
        <time>2015-05-31T11:23:20.453Z</time>
      </trkpt>
      <trkpt lat="48.04094" lon="6.96027">
        <ele>1140</ele>
        <time>2015-05-31T11:23:33.455Z</time>
      </trkpt>
      <trkpt lat="48.04124" lon="6.96074">
        <ele>1139</ele>
        <time>2015-05-31T11:24:06.45Z</time>
      </trkpt>
      <trkpt lat="48.04141" lon="6.96097">
        <ele>1137</ele>
        <time>2015-05-31T11:24:21.456Z</time>
      </trkpt>
      <trkpt lat="48.04166" lon="6.96125">
        <ele>1137</ele>
        <time>2015-05-31T11:24:44.455Z</time>
      </trkpt>
      <trkpt lat="48.0419" lon="6.96151">
        <ele>1136</ele>
        <time>2015-05-31T11:25:06.451Z</time>
      </trkpt>
      <trkpt lat="48.04205" lon="6.96178">
        <ele>1134</ele>
        <time>2015-05-31T11:25:21.455Z</time>
      </trkpt>
      <trkpt lat="48.04218" lon="6.96188">
        <ele>1133</ele>
        <time>2015-05-31T11:25:31.455Z</time>
      </trkpt>
      <trkpt lat="48.04228" lon="6.96201">
        <ele>1133</ele>
        <time>2015-05-31T11:25:39.45Z</time>
      </trkpt>
      <trkpt lat="48.04244" lon="6.96219">
        <ele>1132</ele>
        <time>2015-05-31T11:25:53.451Z</time>
      </trkpt>
      <trkpt lat="48.04253" lon="6.96235">
        <ele>1129</ele>
        <time>2015-05-31T11:26:08.455Z</time>
      </trkpt>
      <trkpt lat="48.04261" lon="6.96254">
        <ele>1130</ele>
        <time>2015-05-31T11:26:24.455Z</time>
      </trkpt>
      <trkpt lat="48.04263" lon="6.96291">
        <ele>1127</ele>
        <time>2015-05-31T11:26:57.454Z</time>
      </trkpt>
      <trkpt lat="48.04261" lon="6.96313">
        <ele>1126</ele>
        <time>2015-05-31T11:27:07.455Z</time>
      </trkpt>
      <trkpt lat="48.04257" lon="6.96364">
        <ele>1124</ele>
        <time>2015-05-31T11:27:33.455Z</time>
      </trkpt>
      <trkpt lat="48.04262" lon="6.96406">
        <ele>1122</ele>
        <time>2015-05-31T11:27:58.45Z</time>
      </trkpt>
      <trkpt lat="48.04262" lon="6.96477">
        <ele>1120</ele>
        <time>2015-05-31T11:28:27.451Z</time>
      </trkpt>
      <trkpt lat="48.04268" lon="6.96496">
        <ele>1119</ele>
        <time>2015-05-31T11:28:35.453Z</time>
      </trkpt>
      <trkpt lat="48.04277" lon="6.96535">
        <ele>1116</ele>
        <time>2015-05-31T11:28:54.451Z</time>
      </trkpt>
      <trkpt lat="48.04291" lon="6.96543">
        <ele>1117</ele>
        <time>2015-05-31T11:29:04.453Z</time>
      </trkpt>
      <trkpt lat="48.04297" lon="6.96562">
        <ele>1116</ele>
        <time>2015-05-31T11:29:13.45Z</time>
      </trkpt>
      <trkpt lat="48.04313" lon="6.96578">
        <ele>1118</ele>
        <time>2015-05-31T11:29:24.453Z</time>
      </trkpt>
      <trkpt lat="48.04326" lon="6.96608">
        <ele>1110</ele>
        <time>2015-05-31T11:29:42.45Z</time>
      </trkpt>
      <trkpt lat="48.04335" lon="6.96624">
        <ele>1111</ele>
        <time>2015-05-31T11:29:51.45Z</time>
      </trkpt>
      <trkpt lat="48.04355" lon="6.96648">
        <ele>1108</ele>
        <time>2015-05-31T11:30:09.45Z</time>
      </trkpt>
      <trkpt lat="48.04368" lon="6.96654">
        <ele>1108</ele>
        <time>2015-05-31T11:30:19.45Z</time>
      </trkpt>
      <trkpt lat="48.04381" lon="6.96667">
        <ele>1095</ele>
        <time>2015-05-31T11:30:29.451Z</time>
      </trkpt>
      <trkpt lat="48.04395" lon="6.96666">
        <ele>1105</ele>
        <time>2015-05-31T11:30:39.45Z</time>
      </trkpt>
      <trkpt lat="48.04408" lon="6.96654">
        <ele>1104</ele>
        <time>2015-05-31T11:30:46.45Z</time>
      </trkpt>
      <trkpt lat="48.04417" lon="6.96637">
        <ele>1096</ele>
        <time>2015-05-31T11:30:55.453Z</time>
      </trkpt>
      <trkpt lat="48.04426" lon="6.96655">
        <ele>1096</ele>
        <time>2015-05-31T11:31:45.453Z</time>
      </trkpt>
      <trkpt lat="48.04434" lon="6.96667">
        <ele>1089</ele>
        <time>2015-05-31T11:32:45.453Z</time>
      </trkpt>
      <trkpt lat="48.04439" lon="6.96671">
        <ele>1088</ele>
        <time>2015-05-31T11:33:45.455Z</time>
      </trkpt>
      <trkpt lat="48.04433" lon="6.96665">
        <ele>1095</ele>
        <time>2015-05-31T11:34:45.458Z</time>
      </trkpt>
      <trkpt lat="48.04449" lon="6.96689">
        <ele>1083</ele>
        <time>2015-05-31T11:35:38.455Z</time>
      </trkpt>
      <trkpt lat="48.04458" lon="6.96711">
        <ele>1080</ele>
        <time>2015-05-31T11:35:55.455Z</time>
      </trkpt>
      <trkpt lat="48.0448" lon="6.96709">
        <ele>1078</ele>
        <time>2015-05-31T11:36:07.455Z</time>
      </trkpt>
      <trkpt lat="48.04485" lon="6.9665">
        <ele>1084</ele>
        <time>2015-05-31T11:36:33.455Z</time>
      </trkpt>
      <trkpt lat="48.0449" lon="6.96625">
        <ele>1086</ele>
        <time>2015-05-31T11:36:45.455Z</time>
      </trkpt>
      <trkpt lat="48.04503" lon="6.96598">
        <ele>1066</ele>
        <time>2015-05-31T11:37:02.455Z</time>
      </trkpt>
      <trkpt lat="48.04512" lon="6.96583">
        <ele>1067</ele>
        <time>2015-05-31T11:37:07.455Z</time>
      </trkpt>
      <trkpt lat="48.04499" lon="6.96588">
        <ele>1078</ele>
        <time>2015-05-31T11:37:27.46Z</time>
      </trkpt>
      <trkpt lat="48.04505" lon="6.9661">
        <ele>1062</ele>
        <time>2015-05-31T11:37:37.454Z</time>
      </trkpt>
      <trkpt lat="48.04526" lon="6.96551">
        <ele>1058</ele>
        <time>2015-05-31T11:38:13.455Z</time>
      </trkpt>
      <trkpt lat="48.0452" lon="6.96528">
        <ele>1060</ele>
        <time>2015-05-31T11:38:23.454Z</time>
      </trkpt>
      <trkpt lat="48.04532" lon="6.96514">
        <ele>1058</ele>
        <time>2015-05-31T11:38:30.454Z</time>
      </trkpt>
      <trkpt lat="48.04533" lon="6.96494">
        <ele>1055</ele>
        <time>2015-05-31T11:38:39.453Z</time>
      </trkpt>
      <trkpt lat="48.04527" lon="6.96473">
        <ele>1055</ele>
        <time>2015-05-31T11:38:49.47Z</time>
      </trkpt>
      <trkpt lat="48.0455" lon="6.96497">
        <ele>1049</ele>
        <time>2015-05-31T11:39:50.454Z</time>
      </trkpt>
      <trkpt lat="48.04564" lon="6.96497">
        <ele>1044</ele>
        <time>2015-05-31T11:39:58.454Z</time>
      </trkpt>
      <trkpt lat="48.04596" lon="6.9649">
        <ele>1026</ele>
        <time>2015-05-31T11:40:58.454Z</time>
      </trkpt>
      <trkpt lat="48.04585" lon="6.96475">
        <ele>1025</ele>
        <time>2015-05-31T11:41:05.454Z</time>
      </trkpt>
      <trkpt lat="48.04583" lon="6.96421">
        <ele>1032</ele>
        <time>2015-05-31T11:41:31.455Z</time>
      </trkpt>
      <trkpt lat="48.04588" lon="6.96398">
        <ele>1020</ele>
        <time>2015-05-31T11:41:42.454Z</time>
      </trkpt>
      <trkpt lat="48.04587" lon="6.9636">
        <ele>1016</ele>
        <time>2015-05-31T11:42:00.451Z</time>
      </trkpt>
      <trkpt lat="48.04576" lon="6.96337">
        <ele>1027</ele>
        <time>2015-05-31T11:42:14.453Z</time>
      </trkpt>
      <trkpt lat="48.04578" lon="6.96314">
        <ele>1025</ele>
        <time>2015-05-31T11:42:21.454Z</time>
      </trkpt>
      <trkpt lat="48.04572" lon="6.96297">
        <ele>1025</ele>
        <time>2015-05-31T11:42:31.453Z</time>
      </trkpt>
      <trkpt lat="48.04576" lon="6.96276">
        <ele>1021</ele>
        <time>2015-05-31T11:42:41.451Z</time>
      </trkpt>
      <trkpt lat="48.0457" lon="6.96256">
        <ele>1016</ele>
        <time>2015-05-31T11:42:55.451Z</time>
      </trkpt>
      <trkpt lat="48.04557" lon="6.96248">
        <ele>1010</ele>
        <time>2015-05-31T11:43:01.451Z</time>
      </trkpt>
      <trkpt lat="48.04561" lon="6.96225">
        <ele>1008</ele>
        <time>2015-05-31T11:43:13.45Z</time>
      </trkpt>
      <trkpt lat="48.04553" lon="6.96207">
        <ele>1007</ele>
        <time>2015-05-31T11:43:25.45Z</time>
      </trkpt>
      <trkpt lat="48.04529" lon="6.96168">
        <ele>1007</ele>
        <time>2015-05-31T11:43:48.449Z</time>
      </trkpt>
      <trkpt lat="48.04508" lon="6.9614">
        <ele>995</ele>
        <time>2015-05-31T11:44:20.449Z</time>
      </trkpt>
      <trkpt lat="48.04508" lon="6.9612">
        <ele>990</ele>
        <time>2015-05-31T11:44:33.45Z</time>
      </trkpt>
      <trkpt lat="48.04491" lon="6.96079">
        <ele>995</ele>
        <time>2015-05-31T11:45:08.45Z</time>
      </trkpt>
      <trkpt lat="48.04465" lon="6.96045">
        <ele>1004</ele>
        <time>2015-05-31T11:45:38.449Z</time>
      </trkpt>
      <trkpt lat="48.04453" lon="6.96033">
        <ele>1006</ele>
        <time>2015-05-31T11:45:52.45Z</time>
      </trkpt>
      <trkpt lat="48.04438" lon="6.96024">
        <ele>1009</ele>
        <time>2015-05-31T11:46:08.449Z</time>
      </trkpt>
      <trkpt lat="48.04406" lon="6.95972">
        <ele>1021</ele>
        <time>2015-05-31T11:46:51.449Z</time>
      </trkpt>
      <trkpt lat="48.04387" lon="6.95929">
        <ele>1017</ele>
        <time>2015-05-31T11:47:24.448Z</time>
      </trkpt>
      <trkpt lat="48.04376" lon="6.95947">
        <ele>1024</ele>
        <time>2015-05-31T11:47:43.446Z</time>
      </trkpt>
      <trkpt lat="48.04347" lon="6.95912">
        <ele>1016</ele>
        <time>2015-05-31T11:48:43.451Z</time>
      </trkpt>
      <trkpt lat="48.04334" lon="6.95892">
        <ele>1010</ele>
        <time>2015-05-31T11:48:55.449Z</time>
      </trkpt>
      <trkpt lat="48.04305" lon="6.95874">
        <ele>1027</ele>
        <time>2015-05-31T11:49:23.448Z</time>
      </trkpt>
      <trkpt lat="48.04292" lon="6.95866">
        <ele>1028</ele>
        <time>2015-05-31T11:49:33.448Z</time>
      </trkpt>
      <trkpt lat="48.04281" lon="6.95854">
        <ele>1028</ele>
        <time>2015-05-31T11:49:45.448Z</time>
      </trkpt>
      <trkpt lat="48.04243" lon="6.95814">
        <ele>1037</ele>
        <time>2015-05-31T11:50:22.448Z</time>
      </trkpt>
      <trkpt lat="48.04219" lon="6.95766">
        <ele>1038</ele>
        <time>2015-05-31T11:51:20.448Z</time>
      </trkpt>
      <trkpt lat="48.04224" lon="6.95736">
        <ele>1032</ele>
        <time>2015-05-31T11:51:34.448Z</time>
      </trkpt>
      <trkpt lat="48.04211" lon="6.95704">
        <ele>1039</ele>
        <time>2015-05-31T11:51:54.45Z</time>
      </trkpt>
      <trkpt lat="48.04192" lon="6.95695">
        <ele>1045</ele>
        <time>2015-05-31T11:52:16.448Z</time>
      </trkpt>
      <trkpt lat="48.04182" lon="6.95678">
        <ele>1051</ele>
        <time>2015-05-31T11:52:27.448Z</time>
      </trkpt>
      <trkpt lat="48.04192" lon="6.95678">
        <ele>1047</ele>
        <time>2015-05-31T11:53:27.449Z</time>
      </trkpt>
      <trkpt lat="48.04223" lon="6.95624">
        <ele>1057</ele>
        <time>2015-05-31T11:54:09.45Z</time>
      </trkpt>
      <trkpt lat="48.04242" lon="6.95606">
        <ele>1058</ele>
        <time>2015-05-31T11:55:09.451Z</time>
      </trkpt>
      <trkpt lat="48.04259" lon="6.95612">
        <ele>1039</ele>
        <time>2015-05-31T11:55:54.448Z</time>
      </trkpt>
      <trkpt lat="48.04286" lon="6.95615">
        <ele>1034</ele>
        <time>2015-05-31T11:56:23.449Z</time>
      </trkpt>
      <trkpt lat="48.04297" lon="6.95598">
        <ele>1036</ele>
        <time>2015-05-31T11:56:55.448Z</time>
      </trkpt>
      <trkpt lat="48.04313" lon="6.95603">
        <ele>1035</ele>
        <time>2015-05-31T11:57:05.448Z</time>
      </trkpt>
      <trkpt lat="48.04324" lon="6.95616">
        <ele>1031</ele>
        <time>2015-05-31T11:57:14.449Z</time>
      </trkpt>
      <trkpt lat="48.04344" lon="6.95644">
        <ele>1010</ele>
        <time>2015-05-31T11:57:33.449Z</time>
      </trkpt>
      <trkpt lat="48.04351" lon="6.9562">
        <ele>1018</ele>
        <time>2015-05-31T11:57:50.448Z</time>
      </trkpt>
      <trkpt lat="48.04367" lon="6.9562">
        <ele>1016</ele>
        <time>2015-05-31T11:58:07.449Z</time>
      </trkpt>
      <trkpt lat="48.04385" lon="6.9562">
        <ele>1015</ele>
        <time>2015-05-31T11:58:18.449Z</time>
      </trkpt>
      <trkpt lat="48.04409" lon="6.95598">
        <ele>1021</ele>
        <time>2015-05-31T11:58:43.448Z</time>
      </trkpt>
      <trkpt lat="48.04421" lon="6.95564">
        <ele>1030</ele>
        <time>2015-05-31T11:59:00.448Z</time>
      </trkpt>
      <trkpt lat="48.04452" lon="6.95563">
        <ele>1028</ele>
        <time>2015-05-31T11:59:14.448Z</time>
      </trkpt>
      <trkpt lat="48.04463" lon="6.95553">
        <ele>1027</ele>
        <time>2015-05-31T11:59:25.45Z</time>
      </trkpt>
      <trkpt lat="48.045" lon="6.95512">
        <ele>1008</ele>
        <time>2015-05-31T12:00:20.449Z</time>
      </trkpt>
      <trkpt lat="48.04494" lon="6.95493">
        <ele>1025</ele>
        <time>2015-05-31T12:00:31.45Z</time>
      </trkpt>
      <trkpt lat="48.04502" lon="6.95425">
        <ele>1012</ele>
        <time>2015-05-31T12:01:13.449Z</time>
      </trkpt>
      <trkpt lat="48.04527" lon="6.95365">
        <ele>1004</ele>
        <time>2015-05-31T12:01:57.45Z</time>
      </trkpt>
      <trkpt lat="48.04539" lon="6.95349">
        <ele>1001</ele>
        <time>2015-05-31T12:02:05.449Z</time>
      </trkpt>
      <trkpt lat="48.04558" lon="6.95288">
        <ele>1005</ele>
        <time>2015-05-31T12:02:57.45Z</time>
      </trkpt>
      <trkpt lat="48.04565" lon="6.95218">
        <ele>1013</ele>
        <time>2015-05-31T12:03:39.45Z</time>
      </trkpt>
      <trkpt lat="48.0458" lon="6.95152">
        <ele>1012</ele>
        <time>2015-05-31T12:04:35.449Z</time>
      </trkpt>
      <trkpt lat="48.04592" lon="6.95096">
        <ele>994</ele>
        <time>2015-05-31T12:05:35.451Z</time>
      </trkpt>
      <trkpt lat="48.04594" lon="6.95025">
        <ele>1006</ele>
        <time>2015-05-31T12:06:22.45Z</time>
      </trkpt>
      <trkpt lat="48.04596" lon="6.94963">
        <ele>1023</ele>
        <time>2015-05-31T12:07:22.45Z</time>
      </trkpt>
      <trkpt lat="48.04602" lon="6.94903">
        <ele>1046</ele>
        <time>2015-05-31T12:08:22.45Z</time>
      </trkpt>
      <trkpt lat="48.04614" lon="6.94866">
        <ele>1046</ele>
        <time>2015-05-31T12:09:22.45Z</time>
      </trkpt>
      <trkpt lat="48.04644" lon="6.94812">
        <ele>1055</ele>
        <time>2015-05-31T12:10:04.45Z</time>
      </trkpt>
      <trkpt lat="48.04662" lon="6.94821">
        <ele>1043</ele>
        <time>2015-05-31T12:10:35.45Z</time>
      </trkpt>
      <trkpt lat="48.04671" lon="6.94837">
        <ele>1024</ele>
        <time>2015-05-31T12:10:49.45Z</time>
      </trkpt>
      <trkpt lat="48.04695" lon="6.94819">
        <ele>1027</ele>
        <time>2015-05-31T12:11:16.45Z</time>
      </trkpt>
      <trkpt lat="48.04732" lon="6.94796">
        <ele>1023</ele>
        <time>2015-05-31T12:11:52.45Z</time>
      </trkpt>
      <trkpt lat="48.04757" lon="6.94775">
        <ele>1009</ele>
        <time>2015-05-31T12:12:18.45Z</time>
      </trkpt>
      <trkpt lat="48.04771" lon="6.94767">
        <ele>1009</ele>
        <time>2015-05-31T12:12:30.45Z</time>
      </trkpt>
      <trkpt lat="48.04827" lon="6.94746">
        <ele>1003</ele>
        <time>2015-05-31T12:13:19.449Z</time>
      </trkpt>
      <trkpt lat="48.04867" lon="6.9471">
        <ele>997</ele>
        <time>2015-05-31T12:14:13.449Z</time>
      </trkpt>
      <trkpt lat="48.04879" lon="6.94699">
        <ele>996</ele>
        <time>2015-05-31T12:14:27.45Z</time>
      </trkpt>
      <trkpt lat="48.04892" lon="6.94688">
        <ele>995</ele>
        <time>2015-05-31T12:14:36.45Z</time>
      </trkpt>
      <trkpt lat="48.04939" lon="6.9466">
        <ele>984</ele>
        <time>2015-05-31T12:15:14.45Z</time>
      </trkpt>
      <trkpt lat="48.04974" lon="6.94634">
        <ele>977</ele>
        <time>2015-05-31T12:16:14.454Z</time>
      </trkpt>
      <trkpt lat="48.04987" lon="6.9463">
        <ele>975</ele>
        <time>2015-05-31T12:17:09.45Z</time>
      </trkpt>
      <trkpt lat="48.05007" lon="6.94606">
        <ele>957</ele>
        <time>2015-05-31T12:17:22.45Z</time>
      </trkpt>
      <trkpt lat="48.05025" lon="6.94592">
        <ele>955</ele>
        <time>2015-05-31T12:17:48.45Z</time>
      </trkpt>
      <trkpt lat="48.05106" lon="6.94591">
        <ele>931</ele>
        <time>2015-05-31T12:18:49.449Z</time>
      </trkpt>
      <trkpt lat="48.05138" lon="6.94597">
        <ele>927</ele>
        <time>2015-05-31T12:19:11.449Z</time>
      </trkpt>
      <trkpt lat="48.05155" lon="6.94597">
        <ele>924</ele>
        <time>2015-05-31T12:19:22.448Z</time>
      </trkpt>
      <trkpt lat="48.05194" lon="6.94591">
        <ele>917</ele>
        <time>2015-05-31T12:20:00.448Z</time>
      </trkpt>
      <trkpt lat="48.05191" lon="6.94602">
        <ele>917</ele>
        <time>2015-05-31T12:21:00.451Z</time>
      </trkpt>
      <trkpt lat="48.05192" lon="6.94602">
        <ele>917</ele>
        <time>2015-05-31T12:22:01.449Z</time>
      </trkpt>
      <trkpt lat="48.05196" lon="6.94599">
        <ele>917</ele>
        <time>2015-05-31T12:23:01.45Z</time>
      </trkpt>
      <trkpt lat="48.05196" lon="6.946">
        <ele>917</ele>
        <time>2015-05-31T12:24:01.45Z</time>
      </trkpt>
      <trkpt lat="48.05196" lon="6.946">
        <ele>917</ele>
        <time>2015-05-31T12:25:01.45Z</time>
      </trkpt>
      <trkpt lat="48.05196" lon="6.946">
        <ele>917</ele>
        <time>2015-05-31T12:26:01.453Z</time>
      </trkpt>
      <trkpt lat="48.05196" lon="6.946">
        <ele>917</ele>
        <time>2015-05-31T12:27:01.454Z</time>
      </trkpt>
      <trkpt lat="48.05196" lon="6.946">
        <ele>917</ele>
        <time>2015-05-31T12:28:02.45Z</time>
      </trkpt>
      <trkpt lat="48.05196" lon="6.946">
        <ele>917</ele>
        <time>2015-05-31T12:29:02.458Z</time>
      </trkpt>
      <trkpt lat="48.05196" lon="6.946">
        <ele>917</ele>
        <time>2015-05-31T12:30:02.46Z</time>
      </trkpt>
      <trkpt lat="48.05197" lon="6.94597">
        <ele>917</ele>
        <time>2015-05-31T12:31:03.453Z</time>
      </trkpt>
      <trkpt lat="48.05197" lon="6.94597">
        <ele>917</ele>
        <time>2015-05-31T12:32:03.454Z</time>
      </trkpt>
      <trkpt lat="48.05197" lon="6.94597">
        <ele>917</ele>
        <time>2015-05-31T12:33:04.454Z</time>
      </trkpt>
      <trkpt lat="48.05197" lon="6.94597">
        <ele>917</ele>
        <time>2015-05-31T12:34:05.446Z</time>
      </trkpt>
      <trkpt lat="48.05197" lon="6.94597">
        <ele>917</ele>
        <time>2015-05-31T12:35:05.453Z</time>
      </trkpt>
      <trkpt lat="48.05197" lon="6.94597">
        <ele>917</ele>
        <time>2015-05-31T12:36:06.448Z</time>
      </trkpt>
      <trkpt lat="48.05197" lon="6.94597">
        <ele>917</ele>
        <time>2015-05-31T12:37:06.454Z</time>
      </trkpt>
      <trkpt lat="48.05198" lon="6.94597">
        <ele>917</ele>
        <time>2015-05-31T12:38:06.455Z</time>
      </trkpt>
      <trkpt lat="48.05198" lon="6.94597">
        <ele>917</ele>
        <time>2015-05-31T12:39:07.449Z</time>
      </trkpt>
      <trkpt lat="48.05198" lon="6.94597">
        <ele>917</ele>
        <time>2015-05-31T12:40:07.454Z</time>
      </trkpt>
      <trkpt lat="48.05198" lon="6.94597">
        <ele>917</ele>
        <time>2015-05-31T12:41:07.456Z</time>
      </trkpt>
      <trkpt lat="48.05198" lon="6.94597">
        <ele>917</ele>
        <time>2015-05-31T12:42:07.46Z</time>
      </trkpt>
      <trkpt lat="48.05198" lon="6.94597">
        <ele>917</ele>
        <time>2015-05-31T12:43:07.46Z</time>
      </trkpt>
      <trkpt lat="48.05199" lon="6.94597">
        <ele>917</ele>
        <time>2015-05-31T12:44:08.456Z</time>
      </trkpt>
      <trkpt lat="48.05199" lon="6.94597">
        <ele>917</ele>
        <time>2015-05-31T12:45:08.459Z</time>
      </trkpt>
      <trkpt lat="48.05199" lon="6.94597">
        <ele>917</ele>
        <time>2015-05-31T12:46:09.458Z</time>
      </trkpt>
      <trkpt lat="48.05194" lon="6.94591">
        <ele>917</ele>
        <time>2015-05-31T12:47:10.455Z</time>
      </trkpt>
      <trkpt lat="48.0519" lon="6.9459">
        <ele>917</ele>
        <time>2015-05-31T12:48:10.455Z</time>
      </trkpt>
      <trkpt lat="48.0519" lon="6.94591">
        <ele>917</ele>
        <time>2015-05-31T12:49:10.455Z</time>
      </trkpt>
      <trkpt lat="48.05189" lon="6.94596">
        <ele>917</ele>
        <time>2015-05-31T12:50:10.459Z</time>
      </trkpt>
      <trkpt lat="48.05198" lon="6.94609">
        <ele>917</ele>
        <time>2015-05-31T12:51:10.459Z</time>
      </trkpt>
      <trkpt lat="48.05207" lon="6.94593">
        <ele>916</ele>
        <time>2015-05-31T12:51:38.455Z</time>
      </trkpt>
      <trkpt lat="48.05222" lon="6.9458">
        <ele>913</ele>
        <time>2015-05-31T12:51:53.454Z</time>
      </trkpt>
      <trkpt lat="48.05228" lon="6.94561">
        <ele>913</ele>
        <time>2015-05-31T12:52:05.453Z</time>
      </trkpt>
      <trkpt lat="48.05227" lon="6.94532">
        <ele>912</ele>
        <time>2015-05-31T12:52:18.455Z</time>
      </trkpt>
      <trkpt lat="48.05232" lon="6.94502">
        <ele>911</ele>
        <time>2015-05-31T12:52:35.455Z</time>
      </trkpt>
      <trkpt lat="48.05236" lon="6.94476">
        <ele>910</ele>
        <time>2015-05-31T12:52:51.454Z</time>
      </trkpt>
      <trkpt lat="48.05226" lon="6.94455">
        <ele>911</ele>
        <time>2015-05-31T12:53:03.451Z</time>
      </trkpt>
      <trkpt lat="48.05225" lon="6.94435">
        <ele>911</ele>
        <time>2015-05-31T12:53:13.451Z</time>
      </trkpt>
      <trkpt lat="48.05229" lon="6.94394">
        <ele>909</ele>
        <time>2015-05-31T12:53:38.453Z</time>
      </trkpt>
      <trkpt lat="48.05213" lon="6.94373">
        <ele>909</ele>
        <time>2015-05-31T12:53:52.455Z</time>
      </trkpt>
      <trkpt lat="48.05204" lon="6.94357">
        <ele>909</ele>
        <time>2015-05-31T12:54:00.451Z</time>
      </trkpt>
      <trkpt lat="48.05187" lon="6.9432">
        <ele>908</ele>
        <time>2015-05-31T12:54:25.453Z</time>
      </trkpt>
      <trkpt lat="48.05173" lon="6.94296">
        <ele>908</ele>
        <time>2015-05-31T12:54:39.451Z</time>
      </trkpt>
      <trkpt lat="48.05155" lon="6.9427">
        <ele>913</ele>
        <time>2015-05-31T12:54:58.453Z</time>
      </trkpt>
      <trkpt lat="48.05128" lon="6.94198">
        <ele>913</ele>
        <time>2015-05-31T12:55:42.453Z</time>
      </trkpt>
      <trkpt lat="48.05117" lon="6.94186">
        <ele>914</ele>
        <time>2015-05-31T12:55:52.454Z</time>
      </trkpt>
      <trkpt lat="48.05107" lon="6.94165">
        <ele>913</ele>
        <time>2015-05-31T12:56:03.45Z</time>
      </trkpt>
      <trkpt lat="48.05103" lon="6.94144">
        <ele>913</ele>
        <time>2015-05-31T12:56:15.451Z</time>
      </trkpt>
      <trkpt lat="48.05098" lon="6.94123">
        <ele>913</ele>
        <time>2015-05-31T12:56:26.454Z</time>
      </trkpt>
      <trkpt lat="48.05111" lon="6.94119">
        <ele>913</ele>
        <time>2015-05-31T12:56:40.454Z</time>
      </trkpt>
      <trkpt lat="48.05138" lon="6.9412">
        <ele>913</ele>
        <time>2015-05-31T12:56:59.453Z</time>
      </trkpt>
      <trkpt lat="48.05147" lon="6.94105">
        <ele>913</ele>
        <time>2015-05-31T12:57:05.458Z</time>
      </trkpt>
      <trkpt lat="48.05156" lon="6.94086">
        <ele>914</ele>
        <time>2015-05-31T12:57:17.453Z</time>
      </trkpt>
      <trkpt lat="48.05159" lon="6.94061">
        <ele>915</ele>
        <time>2015-05-31T12:57:34.453Z</time>
      </trkpt>
      <trkpt lat="48.05158" lon="6.94025">
        <ele>916</ele>
        <time>2015-05-31T12:57:53.453Z</time>
      </trkpt>
      <trkpt lat="48.05157" lon="6.94003">
        <ele>917</ele>
        <time>2015-05-31T12:58:04.451Z</time>
      </trkpt>
      <trkpt lat="48.05165" lon="6.93937">
        <ele>920</ele>
        <time>2015-05-31T12:58:44.451Z</time>
      </trkpt>
      <trkpt lat="48.0516" lon="6.93915">
        <ele>922</ele>
        <time>2015-05-31T12:58:57.451Z</time>
      </trkpt>
      <trkpt lat="48.05164" lon="6.93871">
        <ele>923</ele>
        <time>2015-05-31T12:59:25.451Z</time>
      </trkpt>
      <trkpt lat="48.05151" lon="6.93857">
        <ele>923</ele>
        <time>2015-05-31T12:59:51.453Z</time>
      </trkpt>
      <trkpt lat="48.05136" lon="6.93836">
        <ele>922</ele>
        <time>2015-05-31T13:00:02.453Z</time>
      </trkpt>
      <trkpt lat="48.05136" lon="6.93812">
        <ele>923</ele>
        <time>2015-05-31T13:00:15.451Z</time>
      </trkpt>
      <trkpt lat="48.05128" lon="6.93767">
        <ele>922</ele>
        <time>2015-05-31T13:00:36.451Z</time>
      </trkpt>
      <trkpt lat="48.05121" lon="6.93749">
        <ele>923</ele>
        <time>2015-05-31T13:00:44.451Z</time>
      </trkpt>
      <trkpt lat="48.05116" lon="6.93727">
        <ele>923</ele>
        <time>2015-05-31T13:00:54.451Z</time>
      </trkpt>
      <trkpt lat="48.05105" lon="6.93712">
        <ele>923</ele>
        <time>2015-05-31T13:01:06.453Z</time>
      </trkpt>
      <trkpt lat="48.05082" lon="6.93687">
        <ele>913</ele>
        <time>2015-05-31T13:01:24.451Z</time>
      </trkpt>
      <trkpt lat="48.05072" lon="6.93672">
        <ele>914</ele>
        <time>2015-05-31T13:01:31.455Z</time>
      </trkpt>
      <trkpt lat="48.05047" lon="6.93631">
        <ele>911</ele>
        <time>2015-05-31T13:01:57.453Z</time>
      </trkpt>
      <trkpt lat="48.05032" lon="6.93579">
        <ele>913</ele>
        <time>2015-05-31T13:02:24.451Z</time>
      </trkpt>
      <trkpt lat="48.05007" lon="6.93572">
        <ele>909</ele>
        <time>2015-05-31T13:02:38.453Z</time>
      </trkpt>
      <trkpt lat="48.04997" lon="6.93558">
        <ele>902</ele>
        <time>2015-05-31T13:02:44.451Z</time>
      </trkpt>
      <trkpt lat="48.04974" lon="6.93538">
        <ele>901</ele>
        <time>2015-05-31T13:03:01.451Z</time>
      </trkpt>
      <trkpt lat="48.0496" lon="6.93525">
        <ele>900</ele>
        <time>2015-05-31T13:03:13.453Z</time>
      </trkpt>
      <trkpt lat="48.04959" lon="6.93503">
        <ele>901</ele>
        <time>2015-05-31T13:03:23.454Z</time>
      </trkpt>
      <trkpt lat="48.04934" lon="6.93474">
        <ele>900</ele>
        <time>2015-05-31T13:03:43.453Z</time>
      </trkpt>
      <trkpt lat="48.04937" lon="6.93449">
        <ele>901</ele>
        <time>2015-05-31T13:04:09.45Z</time>
      </trkpt>
      <trkpt lat="48.04928" lon="6.93434">
        <ele>900</ele>
        <time>2015-05-31T13:04:21.45Z</time>
      </trkpt>
      <trkpt lat="48.0492" lon="6.93415">
        <ele>897</ele>
        <time>2015-05-31T13:04:31.45Z</time>
      </trkpt>
      <trkpt lat="48.04911" lon="6.934">
        <ele>892</ele>
        <time>2015-05-31T13:04:43.451Z</time>
      </trkpt>
      <trkpt lat="48.04894" lon="6.93381">
        <ele>889</ele>
        <time>2015-05-31T13:04:57.451Z</time>
      </trkpt>
      <trkpt lat="48.04878" lon="6.93366">
        <ele>888</ele>
        <time>2015-05-31T13:05:07.45Z</time>
      </trkpt>
      <trkpt lat="48.04873" lon="6.93347">
        <ele>887</ele>
        <time>2015-05-31T13:05:16.45Z</time>
      </trkpt>
      <trkpt lat="48.04862" lon="6.93334">
        <ele>885</ele>
        <time>2015-05-31T13:05:25.45Z</time>
      </trkpt>
      <trkpt lat="48.04845" lon="6.93315">
        <ele>886</ele>
        <time>2015-05-31T13:05:42.453Z</time>
      </trkpt>
      <trkpt lat="48.04835" lon="6.93302">
        <ele>887</ele>
        <time>2015-05-31T13:05:55.453Z</time>
      </trkpt>
      <trkpt lat="48.04812" lon="6.9329">
        <ele>879</ele>
        <time>2015-05-31T13:06:12.453Z</time>
      </trkpt>
      <trkpt lat="48.04791" lon="6.9328">
        <ele>879</ele>
        <time>2015-05-31T13:06:28.45Z</time>
      </trkpt>
      <trkpt lat="48.04775" lon="6.93272">
        <ele>878</ele>
        <time>2015-05-31T13:06:38.45Z</time>
      </trkpt>
      <trkpt lat="48.0476" lon="6.9327">
        <ele>878</ele>
        <time>2015-05-31T13:06:57.45Z</time>
      </trkpt>
      <trkpt lat="48.04746" lon="6.93261">
        <ele>876</ele>
        <time>2015-05-31T13:07:09.45Z</time>
      </trkpt>
      <trkpt lat="48.04712" lon="6.93251">
        <ele>873</ele>
        <time>2015-05-31T13:07:35.451Z</time>
      </trkpt>
      <trkpt lat="48.04698" lon="6.93246">
        <ele>879</ele>
        <time>2015-05-31T13:07:45.451Z</time>
      </trkpt>
      <trkpt lat="48.04684" lon="6.93237">
        <ele>878</ele>
        <time>2015-05-31T13:08:00.453Z</time>
      </trkpt>
      <trkpt lat="48.04671" lon="6.93231">
        <ele>878</ele>
        <time>2015-05-31T13:08:15.45Z</time>
      </trkpt>
      <trkpt lat="48.04654" lon="6.93229">
        <ele>880</ele>
        <time>2015-05-31T13:08:29.453Z</time>
      </trkpt>
      <trkpt lat="48.04618" lon="6.93244">
        <ele>881</ele>
        <time>2015-05-31T13:09:01.453Z</time>
      </trkpt>
      <trkpt lat="48.04609" lon="6.93249">
        <ele>881</ele>
        <time>2015-05-31T13:10:01.454Z</time>
      </trkpt>
      <trkpt lat="48.04605" lon="6.93247">
        <ele>882</ele>
        <time>2015-05-31T13:11:01.455Z</time>
      </trkpt>
      <trkpt lat="48.04609" lon="6.93257">
        <ele>875</ele>
        <time>2015-05-31T13:12:01.455Z</time>
      </trkpt>
      <trkpt lat="48.04601" lon="6.93247">
        <ele>881</ele>
        <time>2015-05-31T13:13:01.456Z</time>
      </trkpt>
      <trkpt lat="48.04588" lon="6.93235">
        <ele>882</ele>
        <time>2015-05-31T13:13:33.456Z</time>
      </trkpt>
      <trkpt lat="48.04572" lon="6.93231">
        <ele>882</ele>
        <time>2015-05-31T13:13:48.451Z</time>
      </trkpt>
      <trkpt lat="48.04558" lon="6.93229">
        <ele>882</ele>
        <time>2015-05-31T13:14:01.454Z</time>
      </trkpt>
      <trkpt lat="48.04564" lon="6.9321">
        <ele>883</ele>
        <time>2015-05-31T13:14:20.455Z</time>
      </trkpt>
      <trkpt lat="48.04593" lon="6.93179">
        <ele>889</ele>
        <time>2015-05-31T13:14:51.454Z</time>
      </trkpt>
      <trkpt lat="48.04614" lon="6.9312">
        <ele>896</ele>
        <time>2015-05-31T13:15:29.453Z</time>
      </trkpt>
      <trkpt lat="48.04624" lon="6.93107">
        <ele>896</ele>
        <time>2015-05-31T13:15:38.453Z</time>
      </trkpt>
      <trkpt lat="48.04634" lon="6.9308">
        <ele>904</ele>
        <time>2015-05-31T13:15:50.454Z</time>
      </trkpt>
      <trkpt lat="48.0464" lon="6.93057">
        <ele>905</ele>
        <time>2015-05-31T13:16:09.453Z</time>
      </trkpt>
      <trkpt lat="48.04657" lon="6.92992">
        <ele>920</ele>
        <time>2015-05-31T13:16:57.454Z</time>
      </trkpt>
      <trkpt lat="48.04643" lon="6.92981">
        <ele>921</ele>
        <time>2015-05-31T13:17:12.454Z</time>
      </trkpt>
      <trkpt lat="48.04624" lon="6.9292">
        <ele>926</ele>
        <time>2015-05-31T13:18:04.453Z</time>
      </trkpt>
      <trkpt lat="48.04596" lon="6.92863">
        <ele>936</ele>
        <time>2015-05-31T13:18:42.451Z</time>
      </trkpt>
      <trkpt lat="48.04594" lon="6.92836">
        <ele>935</ele>
        <time>2015-05-31T13:19:02.453Z</time>
      </trkpt>
      <trkpt lat="48.04631" lon="6.92842">
        <ele>941</ele>
        <time>2015-05-31T13:19:57.451Z</time>
      </trkpt>
      <trkpt lat="48.04652" lon="6.92839">
        <ele>947</ele>
        <time>2015-05-31T13:20:12.451Z</time>
      </trkpt>
      <trkpt lat="48.04684" lon="6.92843">
        <ele>955</ele>
        <time>2015-05-31T13:20:34.451Z</time>
      </trkpt>
      <trkpt lat="48.04701" lon="6.92844">
        <ele>956</ele>
        <time>2015-05-31T13:20:56.453Z</time>
      </trkpt>
      <trkpt lat="48.04703" lon="6.92822">
        <ele>964</ele>
        <time>2015-05-31T13:21:09.453Z</time>
      </trkpt>
      <trkpt lat="48.04717" lon="6.92822">
        <ele>966</ele>
        <time>2015-05-31T13:22:01.454Z</time>
      </trkpt>
      <trkpt lat="48.04736" lon="6.92831">
        <ele>969</ele>
        <time>2015-05-31T13:22:15.456Z</time>
      </trkpt>
      <trkpt lat="48.0475" lon="6.92836">
        <ele>970</ele>
        <time>2015-05-31T13:22:26.451Z</time>
      </trkpt>
      <trkpt lat="48.04765" lon="6.92844">
        <ele>963</ele>
        <time>2015-05-31T13:22:44.456Z</time>
      </trkpt>
      <trkpt lat="48.04779" lon="6.92847">
        <ele>959</ele>
        <time>2015-05-31T13:22:52.455Z</time>
      </trkpt>
      <trkpt lat="48.04787" lon="6.92831">
        <ele>970</ele>
        <time>2015-05-31T13:23:00.455Z</time>
      </trkpt>
      <trkpt lat="48.0479" lon="6.92766">
        <ele>973</ele>
        <time>2015-05-31T13:23:54.453Z</time>
      </trkpt>
      <trkpt lat="48.04803" lon="6.92727">
        <ele>979</ele>
        <time>2015-05-31T13:24:54.455Z</time>
      </trkpt>
      <trkpt lat="48.04816" lon="6.92744">
        <ele>978</ele>
        <time>2015-05-31T13:25:51.451Z</time>
      </trkpt>
      <trkpt lat="48.04842" lon="6.92694">
        <ele>992</ele>
        <time>2015-05-31T13:26:39.453Z</time>
      </trkpt>
      <trkpt lat="48.04827" lon="6.92667">
        <ele>989</ele>
        <time>2015-05-31T13:27:01.45Z</time>
      </trkpt>
      <trkpt lat="48.04837" lon="6.92684">
        <ele>992</ele>
        <time>2015-05-31T13:27:32.451Z</time>
      </trkpt>
      <trkpt lat="48.04851" lon="6.92687">
        <ele>993</ele>
        <time>2015-05-31T13:27:41.45Z</time>
      </trkpt>
      <trkpt lat="48.0486" lon="6.92672">
        <ele>994</ele>
        <time>2015-05-31T13:27:51.459Z</time>
      </trkpt>
      <trkpt lat="48.04856" lon="6.92651">
        <ele>1005</ele>
        <time>2015-05-31T13:28:04.449Z</time>
      </trkpt>
      <trkpt lat="48.04849" lon="6.92627">
        <ele>1008</ele>
        <time>2015-05-31T13:28:17.45Z</time>
      </trkpt>
      <trkpt lat="48.04835" lon="6.92547">
        <ele>1022</ele>
        <time>2015-05-31T13:29:07.45Z</time>
      </trkpt>
      <trkpt lat="48.04836" lon="6.92527">
        <ele>1024</ele>
        <time>2015-05-31T13:29:24.45Z</time>
      </trkpt>
      <trkpt lat="48.04835" lon="6.925">
        <ele>1022</ele>
        <time>2015-05-31T13:29:38.45Z</time>
      </trkpt>
      <trkpt lat="48.04828" lon="6.92432">
        <ele>1024</ele>
        <time>2015-05-31T13:30:26.45Z</time>
      </trkpt>
      <trkpt lat="48.04811" lon="6.92369">
        <ele>1029</ele>
        <time>2015-05-31T13:31:06.45Z</time>
      </trkpt>
      <trkpt lat="48.048" lon="6.92342">
        <ele>1030</ele>
        <time>2015-05-31T13:31:26.449Z</time>
      </trkpt>
      <trkpt lat="48.04793" lon="6.92299">
        <ele>1039</ele>
        <time>2015-05-31T13:31:55.449Z</time>
      </trkpt>
      <trkpt lat="48.04781" lon="6.92224">
        <ele>1050</ele>
        <time>2015-05-31T13:32:37.451Z</time>
      </trkpt>
      <trkpt lat="48.04783" lon="6.92172">
        <ele>1054</ele>
        <time>2015-05-31T13:33:37.453Z</time>
      </trkpt>
      <trkpt lat="48.04783" lon="6.92172">
        <ele>1054</ele>
        <time>2015-05-31T13:34:37.455Z</time>
      </trkpt>
      <trkpt lat="48.04783" lon="6.92171">
        <ele>1054</ele>
        <time>2015-05-31T13:35:37.455Z</time>
      </trkpt>
      <trkpt lat="48.04783" lon="6.92171">
        <ele>1054</ele>
        <time>2015-05-31T13:36:37.456Z</time>
      </trkpt>
      <trkpt lat="48.04783" lon="6.92171">
        <ele>1054</ele>
        <time>2015-05-31T13:37:38.455Z</time>
      </trkpt>
      <trkpt lat="48.04783" lon="6.92171">
        <ele>1054</ele>
        <time>2015-05-31T13:38:38.456Z</time>
      </trkpt>
      <trkpt lat="48.04775" lon="6.92177">
        <ele>1053</ele>
        <time>2015-05-31T13:39:38.46Z</time>
      </trkpt>
      <trkpt lat="48.04775" lon="6.92177">
        <ele>1053</ele>
        <time>2015-05-31T13:40:39.455Z</time>
      </trkpt>
      <trkpt lat="48.04775" lon="6.92177">
        <ele>1053</ele>
        <time>2015-05-31T13:41:39.458Z</time>
      </trkpt>
      <trkpt lat="48.04775" lon="6.92177">
        <ele>1053</ele>
        <time>2015-05-31T13:42:40.456Z</time>
      </trkpt>
      <trkpt lat="48.04779" lon="6.92179">
        <ele>1053</ele>
        <time>2015-05-31T13:43:40.458Z</time>
      </trkpt>
      <trkpt lat="48.04756" lon="6.92129">
        <ele>1059</ele>
        <time>2015-05-31T13:44:34.453Z</time>
      </trkpt>
      <trkpt lat="48.04715" lon="6.92073">
        <ele>1067</ele>
        <time>2015-05-31T13:45:17.454Z</time>
      </trkpt>
      <trkpt lat="48.04672" lon="6.92049">
        <ele>1068</ele>
        <time>2015-05-31T13:45:50.451Z</time>
      </trkpt>
      <trkpt lat="48.04652" lon="6.92052">
        <ele>1067</ele>
        <time>2015-05-31T13:46:03.451Z</time>
      </trkpt>
      <trkpt lat="48.04625" lon="6.92073">
        <ele>1066</ele>
        <time>2015-05-31T13:46:24.451Z</time>
      </trkpt>
      <trkpt lat="48.04612" lon="6.92077">
        <ele>1065</ele>
        <time>2015-05-31T13:46:31.46Z</time>
      </trkpt>
      <trkpt lat="48.04584" lon="6.92078">
        <ele>1060</ele>
        <time>2015-05-31T13:47:00.45Z</time>
      </trkpt>
      <trkpt lat="48.04522" lon="6.92078">
        <ele>1079</ele>
        <time>2015-05-31T13:47:57.451Z</time>
      </trkpt>
      <trkpt lat="48.04484" lon="6.92113">
        <ele>1075</ele>
        <time>2015-05-31T13:48:37.451Z</time>
      </trkpt>
      <trkpt lat="48.0445" lon="6.9214">
        <ele>1074</ele>
        <time>2015-05-31T13:49:12.454Z</time>
      </trkpt>
      <trkpt lat="48.04429" lon="6.92141">
        <ele>1075</ele>
        <time>2015-05-31T13:49:44.455Z</time>
      </trkpt>
      <trkpt lat="48.04414" lon="6.92137">
        <ele>1076</ele>
        <time>2015-05-31T13:49:54.456Z</time>
      </trkpt>
      <trkpt lat="48.04386" lon="6.92128">
        <ele>1076</ele>
        <time>2015-05-31T13:50:17.455Z</time>
      </trkpt>
      <trkpt lat="48.04365" lon="6.92104">
        <ele>1077</ele>
        <time>2015-05-31T13:50:40.455Z</time>
      </trkpt>
      <trkpt lat="48.0436" lon="6.92084">
        <ele>1077</ele>
        <time>2015-05-31T13:50:54.454Z</time>
      </trkpt>
      <trkpt lat="48.04344" lon="6.92049">
        <ele>1086</ele>
        <time>2015-05-31T13:51:11.454Z</time>
      </trkpt>
      <trkpt lat="48.04309" lon="6.92002">
        <ele>1078</ele>
        <time>2015-05-31T13:52:11.454Z</time>
      </trkpt>
      <trkpt lat="48.04278" lon="6.91934">
        <ele>1085</ele>
        <time>2015-05-31T13:52:50.454Z</time>
      </trkpt>
      <trkpt lat="48.04263" lon="6.91904">
        <ele>1090</ele>
        <time>2015-05-31T13:53:07.453Z</time>
      </trkpt>
      <trkpt lat="48.04257" lon="6.91884">
        <ele>1092</ele>
        <time>2015-05-31T13:53:15.454Z</time>
      </trkpt>
      <trkpt lat="48.04229" lon="6.91829">
        <ele>1089</ele>
        <time>2015-05-31T13:53:57.45Z</time>
      </trkpt>
      <trkpt lat="48.04223" lon="6.9176">
        <ele>1089</ele>
        <time>2015-05-31T13:54:38.454Z</time>
      </trkpt>
      <trkpt lat="48.04234" lon="6.91696">
        <ele>1088</ele>
        <time>2015-05-31T13:55:09.454Z</time>
      </trkpt>
      <trkpt lat="48.04227" lon="6.91652">
        <ele>1083</ele>
        <time>2015-05-31T13:55:31.453Z</time>
      </trkpt>
      <trkpt lat="48.04222" lon="6.91599">
        <ele>1081</ele>
        <time>2015-05-31T13:56:01.45Z</time>
      </trkpt>
      <trkpt lat="48.04213" lon="6.91578">
        <ele>1077</ele>
        <time>2015-05-31T13:56:15.45Z</time>
      </trkpt>
      <trkpt lat="48.04205" lon="6.91552">
        <ele>1075</ele>
        <time>2015-05-31T13:56:28.459Z</time>
      </trkpt>
      <trkpt lat="48.04202" lon="6.91517">
        <ele>1074</ele>
        <time>2015-05-31T13:56:49.45Z</time>
      </trkpt>
      <trkpt lat="48.04198" lon="6.91485">
        <ele>1070</ele>
        <time>2015-05-31T13:57:05.45Z</time>
      </trkpt>
      <trkpt lat="48.04193" lon="6.91456">
        <ele>1070</ele>
        <time>2015-05-31T13:57:15.45Z</time>
      </trkpt>
      <trkpt lat="48.04189" lon="6.91436">
        <ele>1069</ele>
        <time>2015-05-31T13:57:28.45Z</time>
      </trkpt>
      <trkpt lat="48.0419" lon="6.91415">
        <ele>1065</ele>
        <time>2015-05-31T13:57:38.451Z</time>
      </trkpt>
      <trkpt lat="48.0419" lon="6.91392">
        <ele>1065</ele>
        <time>2015-05-31T13:57:48.453Z</time>
      </trkpt>
      <trkpt lat="48.04187" lon="6.91336">
        <ele>1062</ele>
        <time>2015-05-31T13:58:16.453Z</time>
      </trkpt>
      <trkpt lat="48.04178" lon="6.91321">
        <ele>1059</ele>
        <time>2015-05-31T13:58:27.453Z</time>
      </trkpt>
      <trkpt lat="48.04165" lon="6.91305">
        <ele>1054</ele>
        <time>2015-05-31T13:58:39.45Z</time>
      </trkpt>
      <trkpt lat="48.04152" lon="6.91315">
        <ele>1054</ele>
        <time>2015-05-31T13:59:07.45Z</time>
      </trkpt>
      <trkpt lat="48.04154" lon="6.9132">
        <ele>1055</ele>
        <time>2015-05-31T14:00:07.463Z</time>
      </trkpt>
      <trkpt lat="48.04157" lon="6.91316">
        <ele>1055</ele>
        <time>2015-05-31T14:01:08.454Z</time>
      </trkpt>
      <trkpt lat="48.04131" lon="6.9136">
        <ele>1057</ele>
        <time>2015-05-31T14:01:56.449Z</time>
      </trkpt>
      <trkpt lat="48.0413" lon="6.91382">
        <ele>1057</ele>
        <time>2015-05-31T14:02:06.448Z</time>
      </trkpt>
      <trkpt lat="48.04124" lon="6.91433">
        <ele>1061</ele>
        <time>2015-05-31T14:02:33.45Z</time>
      </trkpt>
      <trkpt lat="48.04115" lon="6.91464">
        <ele>1061</ele>
        <time>2015-05-31T14:02:50.451Z</time>
      </trkpt>
      <trkpt lat="48.04108" lon="6.91482">
        <ele>1060</ele>
        <time>2015-05-31T14:03:03.453Z</time>
      </trkpt>
      <trkpt lat="48.04103" lon="6.91508">
        <ele>1063</ele>
        <time>2015-05-31T14:03:14.451Z</time>
      </trkpt>
      <trkpt lat="48.04091" lon="6.91522">
        <ele>1063</ele>
        <time>2015-05-31T14:03:22.45Z</time>
      </trkpt>
      <trkpt lat="48.04074" lon="6.91527">
        <ele>1060</ele>
        <time>2015-05-31T14:03:38.451Z</time>
      </trkpt>
      <trkpt lat="48.0402" lon="6.9156">
        <ele>1061</ele>
        <time>2015-05-31T14:04:14.45Z</time>
      </trkpt>
      <trkpt lat="48.03996" lon="6.91587">
        <ele>1061</ele>
        <time>2015-05-31T14:04:37.45Z</time>
      </trkpt>
      <trkpt lat="48.03973" lon="6.91592">
        <ele>1058</ele>
        <time>2015-05-31T14:05:00.458Z</time>
      </trkpt>
      <trkpt lat="48.03959" lon="6.91582">
        <ele>1061</ele>
        <time>2015-05-31T14:05:13.453Z</time>
      </trkpt>
      <trkpt lat="48.03945" lon="6.91577">
        <ele>1060</ele>
        <time>2015-05-31T14:05:21.45Z</time>
      </trkpt>
      <trkpt lat="48.0393" lon="6.91579">
        <ele>1060</ele>
        <time>2015-05-31T14:05:29.451Z</time>
      </trkpt>
      <trkpt lat="48.03909" lon="6.91576">
        <ele>1057</ele>
        <time>2015-05-31T14:05:45.453Z</time>
      </trkpt>
      <trkpt lat="48.03896" lon="6.91567">
        <ele>1057</ele>
        <time>2015-05-31T14:05:57.453Z</time>
      </trkpt>
      <trkpt lat="48.03855" lon="6.91524">
        <ele>1056</ele>
        <time>2015-05-31T14:06:33.456Z</time>
      </trkpt>
      <trkpt lat="48.03833" lon="6.91477">
        <ele>1053</ele>
        <time>2015-05-31T14:07:01.451Z</time>
      </trkpt>
      <trkpt lat="48.0381" lon="6.91388">
        <ele>1059</ele>
        <time>2015-05-31T14:07:51.45Z</time>
      </trkpt>
      <trkpt lat="48.03773" lon="6.91353">
        <ele>1057</ele>
        <time>2015-05-31T14:08:21.451Z</time>
      </trkpt>
      <trkpt lat="48.03762" lon="6.91333">
        <ele>1058</ele>
        <time>2015-05-31T14:08:34.45Z</time>
      </trkpt>
      <trkpt lat="48.03742" lon="6.91288">
        <ele>1056</ele>
        <time>2015-05-31T14:09:02.45Z</time>
      </trkpt>
      <trkpt lat="48.03702" lon="6.91234">
        <ele>1062</ele>
        <time>2015-05-31T14:09:38.45Z</time>
      </trkpt>
      <trkpt lat="48.03687" lon="6.91218">
        <ele>1062</ele>
        <time>2015-05-31T14:09:49.45Z</time>
      </trkpt>
      <trkpt lat="48.03673" lon="6.91214">
        <ele>1062</ele>
        <time>2015-05-31T14:09:59.448Z</time>
      </trkpt>
      <trkpt lat="48.03654" lon="6.91203">
        <ele>1059</ele>
        <time>2015-05-31T14:10:10.45Z</time>
      </trkpt>
      <trkpt lat="48.03626" lon="6.91194">
        <ele>1057</ele>
        <time>2015-05-31T14:10:30.453Z</time>
      </trkpt>
      <trkpt lat="48.03612" lon="6.91188">
        <ele>1057</ele>
        <time>2015-05-31T14:10:39.456Z</time>
      </trkpt>
      <trkpt lat="48.03591" lon="6.91177">
        <ele>1059</ele>
        <time>2015-05-31T14:10:56.449Z</time>
      </trkpt>
      <trkpt lat="48.03578" lon="6.91168">
        <ele>1057</ele>
        <time>2015-05-31T14:11:04.453Z</time>
      </trkpt>
      <trkpt lat="48.03524" lon="6.91118">
        <ele>1055</ele>
        <time>2015-05-31T14:11:46.453Z</time>
      </trkpt>
      <trkpt lat="48.03504" lon="6.91106">
        <ele>1055</ele>
        <time>2015-05-31T14:12:02.451Z</time>
      </trkpt>
      <trkpt lat="48.03484" lon="6.91089">
        <ele>1049</ele>
        <time>2015-05-31T14:12:20.451Z</time>
      </trkpt>
      <trkpt lat="48.03473" lon="6.91049">
        <ele>1052</ele>
        <time>2015-05-31T14:12:40.45Z</time>
      </trkpt>
      <trkpt lat="48.03462" lon="6.91035">
        <ele>1052</ele>
        <time>2015-05-31T14:12:50.45Z</time>
      </trkpt>
      <trkpt lat="48.03443" lon="6.91007">
        <ele>1052</ele>
        <time>2015-05-31T14:13:10.451Z</time>
      </trkpt>
      <trkpt lat="48.03427" lon="6.90966">
        <ele>1054</ele>
        <time>2015-05-31T14:13:31.45Z</time>
      </trkpt>
      <trkpt lat="48.03423" lon="6.90945">
        <ele>1055</ele>
        <time>2015-05-31T14:13:43.45Z</time>
      </trkpt>
      <trkpt lat="48.03417" lon="6.90924">
        <ele>1055</ele>
        <time>2015-05-31T14:13:51.45Z</time>
      </trkpt>
      <trkpt lat="48.03413" lon="6.90901">
        <ele>1053</ele>
        <time>2015-05-31T14:14:02.453Z</time>
      </trkpt>
      <trkpt lat="48.03405" lon="6.90873">
        <ele>1052</ele>
        <time>2015-05-31T14:14:15.45Z</time>
      </trkpt>
      <trkpt lat="48.03397" lon="6.9084">
        <ele>1053</ele>
        <time>2015-05-31T14:14:32.458Z</time>
      </trkpt>
      <trkpt lat="48.03383" lon="6.90763">
        <ele>1054</ele>
        <time>2015-05-31T14:15:09.451Z</time>
      </trkpt>
      <trkpt lat="48.0338" lon="6.90735">
        <ele>1058</ele>
        <time>2015-05-31T14:15:24.453Z</time>
      </trkpt>
      <trkpt lat="48.03374" lon="6.90713">
        <ele>1058</ele>
        <time>2015-05-31T14:15:35.451Z</time>
      </trkpt>
      <trkpt lat="48.03359" lon="6.90616">
        <ele>1065</ele>
        <time>2015-05-31T14:16:32.451Z</time>
      </trkpt>
      <trkpt lat="48.03362" lon="6.90591">
        <ele>1066</ele>
        <time>2015-05-31T14:16:49.45Z</time>
      </trkpt>
      <trkpt lat="48.03363" lon="6.90557">
        <ele>1071</ele>
        <time>2015-05-31T14:17:06.45Z</time>
      </trkpt>
      <trkpt lat="48.03368" lon="6.90537">
        <ele>1072</ele>
        <time>2015-05-31T14:17:15.45Z</time>
      </trkpt>
      <trkpt lat="48.03379" lon="6.90472">
        <ele>1077</ele>
        <time>2015-05-31T14:17:50.45Z</time>
      </trkpt>
      <trkpt lat="48.03383" lon="6.90435">
        <ele>1078</ele>
        <time>2015-05-31T14:18:06.45Z</time>
      </trkpt>
      <trkpt lat="48.03374" lon="6.90368">
        <ele>1077</ele>
        <time>2015-05-31T14:18:39.449Z</time>
      </trkpt>
      <trkpt lat="48.0338" lon="6.90309">
        <ele>1075</ele>
        <time>2015-05-31T14:19:08.448Z</time>
      </trkpt>
      <trkpt lat="48.03386" lon="6.90301">
        <ele>1075</ele>
        <time>2015-05-31T14:20:08.449Z</time>
      </trkpt>
      <trkpt lat="48.03385" lon="6.903">
        <ele>1075</ele>
        <time>2015-05-31T14:21:08.454Z</time>
      </trkpt>
      <trkpt lat="48.03386" lon="6.903">
        <ele>1075</ele>
        <time>2015-05-31T14:22:09.45Z</time>
      </trkpt>
      <trkpt lat="48.03383" lon="6.90294">
        <ele>1075</ele>
        <time>2015-05-31T14:23:09.455Z</time>
      </trkpt>
      <trkpt lat="48.03379" lon="6.903">
        <ele>1074</ele>
        <time>2015-05-31T14:24:10.449Z</time>
      </trkpt>
      <trkpt lat="48.0338" lon="6.90306">
        <ele>1075</ele>
        <time>2015-05-31T14:25:10.449Z</time>
      </trkpt>
      <trkpt lat="48.03385" lon="6.90285">
        <ele>1074</ele>
        <time>2015-05-31T14:25:27.448Z</time>
      </trkpt>
      <trkpt lat="48.03389" lon="6.90222">
        <ele>1069</ele>
        <time>2015-05-31T14:25:59.455Z</time>
      </trkpt>
      <trkpt lat="48.03389" lon="6.90199">
        <ele>1068</ele>
        <time>2015-05-31T14:26:12.454Z</time>
      </trkpt>
      <trkpt lat="48.03389" lon="6.90178">
        <ele>1067</ele>
        <time>2015-05-31T14:26:25.451Z</time>
      </trkpt>
      <trkpt lat="48.03384" lon="6.90157">
        <ele>1063</ele>
        <time>2015-05-31T14:26:37.458Z</time>
      </trkpt>
      <trkpt lat="48.03384" lon="6.90135">
        <ele>1062</ele>
        <time>2015-05-31T14:26:45.45Z</time>
      </trkpt>
      <trkpt lat="48.03384" lon="6.90114">
        <ele>1062</ele>
        <time>2015-05-31T14:27:02.451Z</time>
      </trkpt>
      <trkpt lat="48.03381" lon="6.90093">
        <ele>1061</ele>
        <time>2015-05-31T14:27:12.453Z</time>
      </trkpt>
      <trkpt lat="48.0338" lon="6.90049">
        <ele>1057</ele>
        <time>2015-05-31T14:27:31.454Z</time>
      </trkpt>
      <trkpt lat="48.03381" lon="6.90026">
        <ele>1056</ele>
        <time>2015-05-31T14:27:47.453Z</time>
      </trkpt>
      <trkpt lat="48.03383" lon="6.90005">
        <ele>1056</ele>
        <time>2015-05-31T14:27:56.453Z</time>
      </trkpt>
      <trkpt lat="48.0338" lon="6.89974">
        <ele>1053</ele>
        <time>2015-05-31T14:28:12.451Z</time>
      </trkpt>
      <trkpt lat="48.03373" lon="6.89944">
        <ele>1052</ele>
        <time>2015-05-31T14:28:26.453Z</time>
      </trkpt>
      <trkpt lat="48.03373" lon="6.89905">
        <ele>1050</ele>
        <time>2015-05-31T14:28:52.453Z</time>
      </trkpt>
      <trkpt lat="48.03374" lon="6.89885">
        <ele>1050</ele>
        <time>2015-05-31T14:29:00.453Z</time>
      </trkpt>
      <trkpt lat="48.0337" lon="6.89841">
        <ele>1050</ele>
        <time>2015-05-31T14:29:19.453Z</time>
      </trkpt>
      <trkpt lat="48.03363" lon="6.89805">
        <ele>1051</ele>
        <time>2015-05-31T14:29:38.453Z</time>
      </trkpt>
      <trkpt lat="48.03358" lon="6.89786">
        <ele>1051</ele>
        <time>2015-05-31T14:29:48.453Z</time>
      </trkpt>
      <trkpt lat="48.03347" lon="6.89774">
        <ele>1051</ele>
        <time>2015-05-31T14:29:57.451Z</time>
      </trkpt>
      <trkpt lat="48.03278" lon="6.8969">
        <ele>1042</ele>
        <time>2015-05-31T14:30:57.453Z</time>
      </trkpt>
      <trkpt lat="48.03266" lon="6.8968">
        <ele>1041</ele>
        <time>2015-05-31T14:31:05.45Z</time>
      </trkpt>
      <trkpt lat="48.0325" lon="6.89675">
        <ele>1039</ele>
        <time>2015-05-31T14:31:15.449Z</time>
      </trkpt>
      <trkpt lat="48.03224" lon="6.89664">
        <ele>1035</ele>
        <time>2015-05-31T14:31:32.451Z</time>
      </trkpt>
      <trkpt lat="48.03211" lon="6.89649">
        <ele>1034</ele>
        <time>2015-05-31T14:31:43.455Z</time>
      </trkpt>
      <trkpt lat="48.03152" lon="6.89568">
        <ele>1028</ele>
        <time>2015-05-31T14:32:32.451Z</time>
      </trkpt>
      <trkpt lat="48.03121" lon="6.89532">
        <ele>1025</ele>
        <time>2015-05-31T14:32:57.451Z</time>
      </trkpt>
      <trkpt lat="48.03103" lon="6.89508">
        <ele>1023</ele>
        <time>2015-05-31T14:33:12.453Z</time>
      </trkpt>
      <trkpt lat="48.03097" lon="6.89487">
        <ele>1025</ele>
        <time>2015-05-31T14:33:22.455Z</time>
      </trkpt>
      <trkpt lat="48.03086" lon="6.89471">
        <ele>1026</ele>
        <time>2015-05-31T14:33:32.45Z</time>
      </trkpt>
      <trkpt lat="48.03078" lon="6.89452">
        <ele>1013</ele>
        <time>2015-05-31T14:33:40.45Z</time>
      </trkpt>
      <trkpt lat="48.0303" lon="6.89346">
        <ele>1015</ele>
        <time>2015-05-31T14:34:35.45Z</time>
      </trkpt>
      <trkpt lat="48.0302" lon="6.89331">
        <ele>1017</ele>
        <time>2015-05-31T14:34:44.451Z</time>
      </trkpt>
      <trkpt lat="48.03009" lon="6.89318">
        <ele>1016</ele>
        <time>2015-05-31T14:34:53.45Z</time>
      </trkpt>
      <trkpt lat="48.02995" lon="6.89309">
        <ele>1007</ele>
        <time>2015-05-31T14:35:01.451Z</time>
      </trkpt>
      <trkpt lat="48.02978" lon="6.89308">
        <ele>1006</ele>
        <time>2015-05-31T14:35:12.451Z</time>
      </trkpt>
      <trkpt lat="48.02957" lon="6.893">
        <ele>1003</ele>
        <time>2015-05-31T14:35:24.451Z</time>
      </trkpt>
      <trkpt lat="48.02944" lon="6.89291">
        <ele>1003</ele>
        <time>2015-05-31T14:35:36.458Z</time>
      </trkpt>
      <trkpt lat="48.02917" lon="6.89254">
        <ele>1001</ele>
        <time>2015-05-31T14:36:01.45Z</time>
      </trkpt>
      <trkpt lat="48.02903" lon="6.8924">
        <ele>996</ele>
        <time>2015-05-31T14:36:12.453Z</time>
      </trkpt>
      <trkpt lat="48.02887" lon="6.89206">
        <ele>994</ele>
        <time>2015-05-31T14:36:34.451Z</time>
      </trkpt>
      <trkpt lat="48.02872" lon="6.8919">
        <ele>992</ele>
        <time>2015-05-31T14:36:44.453Z</time>
      </trkpt>
      <trkpt lat="48.02861" lon="6.89175">
        <ele>989</ele>
        <time>2015-05-31T14:36:55.45Z</time>
      </trkpt>
      <trkpt lat="48.02845" lon="6.89131">
        <ele>995</ele>
        <time>2015-05-31T14:37:19.451Z</time>
      </trkpt>
      <trkpt lat="48.02837" lon="6.89113">
        <ele>995</ele>
        <time>2015-05-31T14:37:30.45Z</time>
      </trkpt>
      <trkpt lat="48.0281" lon="6.89056">
        <ele>979</ele>
        <time>2015-05-31T14:38:02.451Z</time>
      </trkpt>
      <trkpt lat="48.02801" lon="6.8904">
        <ele>978</ele>
        <time>2015-05-31T14:38:12.451Z</time>
      </trkpt>
      <trkpt lat="48.02781" lon="6.88975">
        <ele>979</ele>
        <time>2015-05-31T14:38:45.451Z</time>
      </trkpt>
      <trkpt lat="48.02774" lon="6.88958">
        <ele>979</ele>
        <time>2015-05-31T14:38:55.453Z</time>
      </trkpt>
      <trkpt lat="48.02765" lon="6.88916">
        <ele>978</ele>
        <time>2015-05-31T14:39:14.451Z</time>
      </trkpt>
      <trkpt lat="48.02757" lon="6.88896">
        <ele>980</ele>
        <time>2015-05-31T14:39:24.451Z</time>
      </trkpt>
      <trkpt lat="48.02748" lon="6.88875">
        <ele>962</ele>
        <time>2015-05-31T14:39:34.451Z</time>
      </trkpt>
      <trkpt lat="48.02744" lon="6.88854">
        <ele>965</ele>
        <time>2015-05-31T14:39:44.454Z</time>
      </trkpt>
      <trkpt lat="48.02741" lon="6.88833">
        <ele>972</ele>
        <time>2015-05-31T14:39:55.451Z</time>
      </trkpt>
      <trkpt lat="48.02736" lon="6.88812">
        <ele>969</ele>
        <time>2015-05-31T14:40:06.451Z</time>
      </trkpt>
      <trkpt lat="48.02724" lon="6.88785">
        <ele>968</ele>
        <time>2015-05-31T14:40:21.451Z</time>
      </trkpt>
      <trkpt lat="48.02705" lon="6.88754">
        <ele>965</ele>
        <time>2015-05-31T14:40:38.451Z</time>
      </trkpt>
      <trkpt lat="48.02693" lon="6.88743">
        <ele>967</ele>
        <time>2015-05-31T14:40:46.45Z</time>
      </trkpt>
      <trkpt lat="48.02679" lon="6.88718">
        <ele>967</ele>
        <time>2015-05-31T14:41:04.451Z</time>
      </trkpt>
      <trkpt lat="48.02662" lon="6.88703">
        <ele>954</ele>
        <time>2015-05-31T14:41:21.45Z</time>
      </trkpt>
      <trkpt lat="48.02648" lon="6.88696">
        <ele>953</ele>
        <time>2015-05-31T14:41:33.449Z</time>
      </trkpt>
      <trkpt lat="48.02642" lon="6.88675">
        <ele>955</ele>
        <time>2015-05-31T14:41:45.448Z</time>
      </trkpt>
      <trkpt lat="48.02626" lon="6.8867">
        <ele>952</ele>
        <time>2015-05-31T14:41:53.451Z</time>
      </trkpt>
      <trkpt lat="48.02616" lon="6.88651">
        <ele>954</ele>
        <time>2015-05-31T14:42:20.45Z</time>
      </trkpt>
      <trkpt lat="48.02607" lon="6.88636">
        <ele>954</ele>
        <time>2015-05-31T14:42:26.451Z</time>
      </trkpt>
      <trkpt lat="48.026" lon="6.88617">
        <ele>954</ele>
        <time>2015-05-31T14:42:37.45Z</time>
      </trkpt>
      <trkpt lat="48.02589" lon="6.88607">
        <ele>953</ele>
        <time>2015-05-31T14:43:37.455Z</time>
      </trkpt>
      <trkpt lat="48.02589" lon="6.88607">
        <ele>953</ele>
        <time>2015-05-31T14:44:38.455Z</time>
      </trkpt>
      <trkpt lat="48.02589" lon="6.88611">
        <ele>953</ele>
        <time>2015-05-31T14:45:39.451Z</time>
      </trkpt>
      <trkpt lat="48.02589" lon="6.88614">
        <ele>953</ele>
        <time>2015-05-31T14:46:39.459Z</time>
      </trkpt>
      <trkpt lat="48.0259" lon="6.88606">
        <ele>953</ele>
        <time>2015-05-31T14:47:40.458Z</time>
      </trkpt>
      <trkpt lat="48.02589" lon="6.88608">
        <ele>953</ele>
        <time>2015-05-31T14:48:41.465Z</time>
      </trkpt>
      <trkpt lat="48.02588" lon="6.88603">
        <ele>952</ele>
        <time>2015-05-31T14:49:42.461Z</time>
      </trkpt>
      <trkpt lat="48.02588" lon="6.88619">
        <ele>953</ele>
        <time>2015-05-31T14:50:43.46Z</time>
      </trkpt>
      <trkpt lat="48.02594" lon="6.88638">
        <ele>953</ele>
        <time>2015-05-31T14:51:21.458Z</time>
      </trkpt>
      <trkpt lat="48.02606" lon="6.88686">
        <ele>949</ele>
        <time>2015-05-31T14:52:22.455Z</time>
      </trkpt>
      <trkpt lat="48.02597" lon="6.88701">
        <ele>948</ele>
        <time>2015-05-31T14:53:03.455Z</time>
      </trkpt>
      <trkpt lat="48.0257" lon="6.88707">
        <ele>940</ele>
        <time>2015-05-31T14:53:26.455Z</time>
      </trkpt>
      <trkpt lat="48.02546" lon="6.88695">
        <ele>940</ele>
        <time>2015-05-31T14:53:45.455Z</time>
      </trkpt>
      <trkpt lat="48.02515" lon="6.8866">
        <ele>943</ele>
        <time>2015-05-31T14:54:14.454Z</time>
      </trkpt>
      <trkpt lat="48.02503" lon="6.88648">
        <ele>944</ele>
        <time>2015-05-31T14:54:24.453Z</time>
      </trkpt>
      <trkpt lat="48.02485" lon="6.8863">
        <ele>943</ele>
        <time>2015-05-31T14:54:38.455Z</time>
      </trkpt>
      <trkpt lat="48.02467" lon="6.88632">
        <ele>943</ele>
        <time>2015-05-31T14:54:48.455Z</time>
      </trkpt>
      <trkpt lat="48.02436" lon="6.88634">
        <ele>942</ele>
        <time>2015-05-31T14:55:11.455Z</time>
      </trkpt>
      <trkpt lat="48.02405" lon="6.88628">
        <ele>937</ele>
        <time>2015-05-31T14:55:32.455Z</time>
      </trkpt>
      <trkpt lat="48.02385" lon="6.88609">
        <ele>938</ele>
        <time>2015-05-31T14:55:50.455Z</time>
      </trkpt>
      <trkpt lat="48.02371" lon="6.88605">
        <ele>937</ele>
        <time>2015-05-31T14:56:01.458Z</time>
      </trkpt>
      <trkpt lat="48.02348" lon="6.88593">
        <ele>935</ele>
        <time>2015-05-31T14:56:20.46Z</time>
      </trkpt>
      <trkpt lat="48.02309" lon="6.88558">
        <ele>932</ele>
        <time>2015-05-31T14:56:53.459Z</time>
      </trkpt>
      <trkpt lat="48.02286" lon="6.88533">
        <ele>931</ele>
        <time>2015-05-31T14:57:13.458Z</time>
      </trkpt>
      <trkpt lat="48.02267" lon="6.88507">
        <ele>930</ele>
        <time>2015-05-31T14:57:31.455Z</time>
      </trkpt>
      <trkpt lat="48.02251" lon="6.88487">
        <ele>934</ele>
        <time>2015-05-31T14:57:44.455Z</time>
      </trkpt>
      <trkpt lat="48.0223" lon="6.88475">
        <ele>928</ele>
        <time>2015-05-31T14:57:57.455Z</time>
      </trkpt>
      <trkpt lat="48.02154" lon="6.88427">
        <ele>920</ele>
        <time>2015-05-31T14:58:54.455Z</time>
      </trkpt>
      <trkpt lat="48.0214" lon="6.88436">
        <ele>917</ele>
        <time>2015-05-31T14:59:01.455Z</time>
      </trkpt>
      <trkpt lat="48.02128" lon="6.88448">
        <ele>915</ele>
        <time>2015-05-31T14:59:17.455Z</time>
      </trkpt>
      <trkpt lat="48.02134" lon="6.88467">
        <ele>913</ele>
        <time>2015-05-31T14:59:31.455Z</time>
      </trkpt>
      <trkpt lat="48.02148" lon="6.88471">
        <ele>913</ele>
        <time>2015-05-31T14:59:39.455Z</time>
      </trkpt>
      <trkpt lat="48.02141" lon="6.88489">
        <ele>912</ele>
        <time>2015-05-31T15:00:02.455Z</time>
      </trkpt>
      <trkpt lat="48.02125" lon="6.8849">
        <ele>911</ele>
        <time>2015-05-31T15:00:12.456Z</time>
      </trkpt>
      <trkpt lat="48.02101" lon="6.8848">
        <ele>910</ele>
        <time>2015-05-31T15:00:32.456Z</time>
      </trkpt>
      <trkpt lat="48.02087" lon="6.88467">
        <ele>911</ele>
        <time>2015-05-31T15:00:47.455Z</time>
      </trkpt>
      <trkpt lat="48.02077" lon="6.88451">
        <ele>908</ele>
        <time>2015-05-31T15:00:58.455Z</time>
      </trkpt>
      <trkpt lat="48.02061" lon="6.8844">
        <ele>908</ele>
        <time>2015-05-31T15:01:08.455Z</time>
      </trkpt>
      <trkpt lat="48.02002" lon="6.88409">
        <ele>914</ele>
        <time>2015-05-31T15:01:55.456Z</time>
      </trkpt>
      <trkpt lat="48.01987" lon="6.88399">
        <ele>910</ele>
        <time>2015-05-31T15:02:05.455Z</time>
      </trkpt>
      <trkpt lat="48.01953" lon="6.88381">
        <ele>907</ele>
        <time>2015-05-31T15:02:30.455Z</time>
      </trkpt>
      <trkpt lat="48.01939" lon="6.88365">
        <ele>907</ele>
        <time>2015-05-31T15:02:47.459Z</time>
      </trkpt>
      <trkpt lat="48.01921" lon="6.8835">
        <ele>907</ele>
        <time>2015-05-31T15:02:59.465Z</time>
      </trkpt>
      <trkpt lat="48.01909" lon="6.88351">
        <ele>896</ele>
        <time>2015-05-31T15:04:00.463Z</time>
      </trkpt>
      <trkpt lat="48.01908" lon="6.88376">
        <ele>891</ele>
        <time>2015-05-31T15:04:45.456Z</time>
      </trkpt>
      <trkpt lat="48.01894" lon="6.88381">
        <ele>889</ele>
        <time>2015-05-31T15:05:19.46Z</time>
      </trkpt>
      <trkpt lat="48.01881" lon="6.88388">
        <ele>887</ele>
        <time>2015-05-31T15:05:29.46Z</time>
      </trkpt>
      <trkpt lat="48.01863" lon="6.88386">
        <ele>884</ele>
        <time>2015-05-31T15:05:50.46Z</time>
      </trkpt>
      <trkpt lat="48.01862" lon="6.88413">
        <ele>882</ele>
        <time>2015-05-31T15:06:04.463Z</time>
      </trkpt>
      <trkpt lat="48.0186" lon="6.88437">
        <ele>874</ele>
        <time>2015-05-31T15:06:14.461Z</time>
      </trkpt>
      <trkpt lat="48.01864" lon="6.88483">
        <ele>872</ele>
        <time>2015-05-31T15:06:37.464Z</time>
      </trkpt>
      <trkpt lat="48.0187" lon="6.88504">
        <ele>863</ele>
        <time>2015-05-31T15:06:46.46Z</time>
      </trkpt>
      <trkpt lat="48.01879" lon="6.8852">
        <ele>864</ele>
        <time>2015-05-31T15:06:55.463Z</time>
      </trkpt>
      <trkpt lat="48.01891" lon="6.88547">
        <ele>863</ele>
        <time>2015-05-31T15:07:11.459Z</time>
      </trkpt>
      <trkpt lat="48.01876" lon="6.88544">
        <ele>862</ele>
        <time>2015-05-31T15:07:31.461Z</time>
      </trkpt>
      <trkpt lat="48.01863" lon="6.88537">
        <ele>861</ele>
        <time>2015-05-31T15:07:45.47Z</time>
      </trkpt>
      <trkpt lat="48.0186" lon="6.88559">
        <ele>859</ele>
        <time>2015-05-31T15:07:58.463Z</time>
      </trkpt>
      <trkpt lat="48.01861" lon="6.88583">
        <ele>857</ele>
        <time>2015-05-31T15:08:10.46Z</time>
      </trkpt>
      <trkpt lat="48.0187" lon="6.886">
        <ele>850</ele>
        <time>2015-05-31T15:08:19.46Z</time>
      </trkpt>
      <trkpt lat="48.01873" lon="6.8862">
        <ele>849</ele>
        <time>2015-05-31T15:08:31.463Z</time>
      </trkpt>
      <trkpt lat="48.01878" lon="6.88641">
        <ele>848</ele>
        <time>2015-05-31T15:08:44.463Z</time>
      </trkpt>
      <trkpt lat="48.01872" lon="6.88659">
        <ele>847</ele>
        <time>2015-05-31T15:09:01.46Z</time>
      </trkpt>
      <trkpt lat="48.01857" lon="6.88659">
        <ele>845</ele>
        <time>2015-05-31T15:09:12.456Z</time>
      </trkpt>
      <trkpt lat="48.01834" lon="6.88648">
        <ele>844</ele>
        <time>2015-05-31T15:09:28.458Z</time>
      </trkpt>
      <trkpt lat="48.0182" lon="6.88655">
        <ele>835</ele>
        <time>2015-05-31T15:09:41.455Z</time>
      </trkpt>
      <trkpt lat="48.01806" lon="6.88663">
        <ele>833</ele>
        <time>2015-05-31T15:09:53.46Z</time>
      </trkpt>
      <trkpt lat="48.01792" lon="6.88656">
        <ele>830</ele>
        <time>2015-05-31T15:10:07.459Z</time>
      </trkpt>
      <trkpt lat="48.01783" lon="6.88641">
        <ele>829</ele>
        <time>2015-05-31T15:10:18.459Z</time>
      </trkpt>
      <trkpt lat="48.01766" lon="6.88621">
        <ele>828</ele>
        <time>2015-05-31T15:10:32.455Z</time>
      </trkpt>
      <trkpt lat="48.01752" lon="6.8862">
        <ele>827</ele>
        <time>2015-05-31T15:10:40.46Z</time>
      </trkpt>
      <trkpt lat="48.01742" lon="6.88636">
        <ele>812</ele>
        <time>2015-05-31T15:10:50.456Z</time>
      </trkpt>
      <trkpt lat="48.01733" lon="6.88656">
        <ele>812</ele>
        <time>2015-05-31T15:11:09.46Z</time>
      </trkpt>
      <trkpt lat="48.01707" lon="6.8863">
        <ele>808</ele>
        <time>2015-05-31T15:11:32.458Z</time>
      </trkpt>
      <trkpt lat="48.0168" lon="6.88604">
        <ele>804</ele>
        <time>2015-05-31T15:11:56.458Z</time>
      </trkpt>
      <trkpt lat="48.01626" lon="6.88582">
        <ele>792</ele>
        <time>2015-05-31T15:12:37.46Z</time>
      </trkpt>
      <trkpt lat="48.01613" lon="6.88571">
        <ele>790</ele>
        <time>2015-05-31T15:12:51.46Z</time>
      </trkpt>
      <trkpt lat="48.01596" lon="6.88558">
        <ele>788</ele>
        <time>2015-05-31T15:13:04.456Z</time>
      </trkpt>
      <trkpt lat="48.0158" lon="6.88553">
        <ele>780</ele>
        <time>2015-05-31T15:13:14.456Z</time>
      </trkpt>
      <trkpt lat="48.01565" lon="6.88548">
        <ele>780</ele>
        <time>2015-05-31T15:13:35.459Z</time>
      </trkpt>
      <trkpt lat="48.01548" lon="6.88541">
        <ele>780</ele>
        <time>2015-05-31T15:13:48.455Z</time>
      </trkpt>
      <trkpt lat="48.01535" lon="6.88545">
        <ele>779</ele>
        <time>2015-05-31T15:13:55.458Z</time>
      </trkpt>
      <trkpt lat="48.01518" lon="6.88546">
        <ele>778</ele>
        <time>2015-05-31T15:14:06.459Z</time>
      </trkpt>
      <trkpt lat="48.01504" lon="6.88545">
        <ele>778</ele>
        <time>2015-05-31T15:14:14.459Z</time>
      </trkpt>
      <trkpt lat="48.0149" lon="6.88542">
        <ele>771</ele>
        <time>2015-05-31T15:14:27.458Z</time>
      </trkpt>
      <trkpt lat="48.01465" lon="6.8855">
        <ele>769</ele>
        <time>2015-05-31T15:14:46.455Z</time>
      </trkpt>
      <trkpt lat="48.01448" lon="6.88548">
        <ele>768</ele>
        <time>2015-05-31T15:15:02.46Z</time>
      </trkpt>
      <trkpt lat="48.01426" lon="6.88541">
        <ele>768</ele>
        <time>2015-05-31T15:15:13.46Z</time>
      </trkpt>
      <trkpt lat="48.01406" lon="6.88547">
        <ele>758</ele>
        <time>2015-05-31T15:15:31.46Z</time>
      </trkpt>
      <trkpt lat="48.01392" lon="6.88556">
        <ele>756</ele>
        <time>2015-05-31T15:15:44.459Z</time>
      </trkpt>
      <trkpt lat="48.0137" lon="6.88555">
        <ele>754</ele>
        <time>2015-05-31T15:16:00.455Z</time>
      </trkpt>
      <trkpt lat="48.01361" lon="6.88571">
        <ele>752</ele>
        <time>2015-05-31T15:16:13.456Z</time>
      </trkpt>
      <trkpt lat="48.0135" lon="6.88583">
        <ele>749</ele>
        <time>2015-05-31T15:16:56.458Z</time>
      </trkpt>
      <trkpt lat="48.01337" lon="6.88591">
        <ele>742</ele>
        <time>2015-05-31T15:17:05.459Z</time>
      </trkpt>
      <trkpt lat="48.01319" lon="6.88591">
        <ele>733</ele>
        <time>2015-05-31T15:17:14.459Z</time>
      </trkpt>
      <trkpt lat="48.01273" lon="6.886">
        <ele>722</ele>
        <time>2015-05-31T15:17:58.46Z</time>
      </trkpt>
      <trkpt lat="48.01227" lon="6.88579">
        <ele>713</ele>
        <time>2015-05-31T15:18:38.465Z</time>
      </trkpt>
      <trkpt lat="48.01214" lon="6.88573">
        <ele>710</ele>
        <time>2015-05-31T15:18:54.458Z</time>
      </trkpt>
      <trkpt lat="48.01175" lon="6.88553">
        <ele>704</ele>
        <time>2015-05-31T15:19:19.455Z</time>
      </trkpt>
      <trkpt lat="48.0116" lon="6.8852">
        <ele>694</ele>
        <time>2015-05-31T15:19:42.463Z</time>
      </trkpt>
      <trkpt lat="48.01148" lon="6.88504">
        <ele>694</ele>
        <time>2015-05-31T15:19:58.47Z</time>
      </trkpt>
      <trkpt lat="48.01131" lon="6.88485">
        <ele>694</ele>
        <time>2015-05-31T15:20:11.46Z</time>
      </trkpt>
      <trkpt lat="48.01114" lon="6.88453">
        <ele>691</ele>
        <time>2015-05-31T15:20:35.459Z</time>
      </trkpt>
      <trkpt lat="48.01095" lon="6.88431">
        <ele>686</ele>
        <time>2015-05-31T15:20:52.459Z</time>
      </trkpt>
      <trkpt lat="48.01084" lon="6.88416">
        <ele>679</ele>
        <time>2015-05-31T15:21:07.458Z</time>
      </trkpt>
      <trkpt lat="48.01069" lon="6.88384">
        <ele>676</ele>
        <time>2015-05-31T15:21:29.459Z</time>
      </trkpt>
      <trkpt lat="48.0106" lon="6.88368">
        <ele>676</ele>
        <time>2015-05-31T15:21:40.456Z</time>
      </trkpt>
      <trkpt lat="48.01048" lon="6.88351">
        <ele>675</ele>
        <time>2015-05-31T15:21:51.458Z</time>
      </trkpt>
      <trkpt lat="48.01035" lon="6.88346">
        <ele>673</ele>
        <time>2015-05-31T15:21:59.455Z</time>
      </trkpt>
      <trkpt lat="48.01023" lon="6.88334">
        <ele>670</ele>
        <time>2015-05-31T15:22:10.456Z</time>
      </trkpt>
      <trkpt lat="48.00969" lon="6.88293">
        <ele>661</ele>
        <time>2015-05-31T15:22:51.456Z</time>
      </trkpt>
      <trkpt lat="48.00794" lon="6.88239">
        <ele>647</ele>
        <time>2015-05-31T15:25:01.474Z</time>
      </trkpt>
      <trkpt lat="48.0078" lon="6.8823">
        <ele>647</ele>
        <time>2015-05-31T15:25:15.474Z</time>
      </trkpt>
      <trkpt lat="48.00752" lon="6.88227">
        <ele>647</ele>
        <time>2015-05-31T15:25:36.473Z</time>
      </trkpt>
      <trkpt lat="48.00741" lon="6.88239">
        <ele>647</ele>
        <time>2015-05-31T15:25:54.465Z</time>
      </trkpt>
      <trkpt lat="48.00728" lon="6.88226">
        <ele>647</ele>
        <time>2015-05-31T15:26:03.465Z</time>
      </trkpt>
      <trkpt lat="48.00712" lon="6.882">
        <ele>647</ele>
        <time>2015-05-31T15:27:03.465Z</time>
      </trkpt>
      <trkpt lat="48.00712" lon="6.882">
        <ele>647</ele>
        <time>2015-05-31T15:27:03.465Z</time>
      </trkpt>
    </trkseg>
  </trk>
</gpx>